<?xml version="1.0" encoding="UTF-8" standalone="no" ?>
<gpx xmlns="http://www.topografix.com/GPX/1/1" xmlns:xsi="http://www.w3.org/2001/XMLSchema-instance" xsi:schemaLocation="http://www.topografix.com/GPX/1/1 http://www.topografix.com/GPX/1/1/gpx.xsd" version="1.1" creator="VisuGPX - https://www.visugpx.com">
  <metadata>
    <name>Tour du lac de Guerlédan</name>
    <desc><![CDATA[Le tour du lac de Guerlédan en VTC, en passant par Saint-Aignan, Sainte Brigitte et Perret ; à voir sur le circuit les forges des Salles et l'abbaye de Bon-Repos. ]]></desc>
  </metadata>
  <trk>
    <name><![CDATA[tour du lac de guerledan]]></name>
    <desc><![CDATA[À partir de la Piste Active]]></desc>
    <trkseg>
    </trkseg>
    </trkseg>
    </trkseg>
    </trkseg>
    </trkseg>
    </trkseg>
    </trkseg>
      <trkpt lat="48.19825" lon="-2.98956">
        <ele>150.199219</ele>
        <time>2020-07-24T09:26:02.000Z</time>
      </trkpt>
      <trkpt lat="48.19833" lon="-2.98947">
        <ele>149.597656</ele>
        <time>2020-07-24T09:26:06.000Z</time>
      </trkpt>
      <trkpt lat="48.19835" lon="-2.98932">
        <ele>148.796875</ele>
        <time>2020-07-24T09:26:11.000Z</time>
      </trkpt>
      <trkpt lat="48.19827" lon="-2.98924">
        <ele>148.398438</ele>
        <time>2020-07-24T09:26:18.000Z</time>
      </trkpt>
      <trkpt lat="48.19817" lon="-2.98931">
        <ele>147.898438</ele>
        <time>2020-07-24T09:26:23.000Z</time>
      </trkpt>
      <trkpt lat="48.19808" lon="-2.9894">
        <ele>147.296875</ele>
        <time>2020-07-24T09:26:27.000Z</time>
      </trkpt>
      <trkpt lat="48.198" lon="-2.98951">
        <ele>146.597656</ele>
        <time>2020-07-24T09:26:30.000Z</time>
      </trkpt>
      <trkpt lat="48.19795" lon="-2.98969">
        <ele>146.097656</ele>
        <time>2020-07-24T09:26:33.000Z</time>
      </trkpt>
      <trkpt lat="48.19773" lon="-2.99045">
        <ele>144.5</ele>
        <time>2020-07-24T09:26:43.000Z</time>
      </trkpt>
      <trkpt lat="48.19765" lon="-2.99061">
        <ele>144</ele>
        <time>2020-07-24T09:26:45.000Z</time>
      </trkpt>
      <trkpt lat="48.19748" lon="-2.99093">
        <ele>142.796875</ele>
        <time>2020-07-24T09:26:49.000Z</time>
      </trkpt>
      <trkpt lat="48.19689" lon="-2.99196">
        <ele>138.398438</ele>
        <time>2020-07-24T09:27:01.000Z</time>
      </trkpt>
      <trkpt lat="48.19677" lon="-2.99212">
        <ele>137.5</ele>
        <time>2020-07-24T09:27:03.000Z</time>
      </trkpt>
      <trkpt lat="48.19662" lon="-2.99223">
        <ele>136.699219</ele>
        <time>2020-07-24T09:27:05.000Z</time>
      </trkpt>
      <trkpt lat="48.19647" lon="-2.99229">
        <ele>135.796875</ele>
        <time>2020-07-24T09:27:07.000Z</time>
      </trkpt>
      <trkpt lat="48.19631" lon="-2.99233">
        <ele>134.796875</ele>
        <time>2020-07-24T09:27:09.000Z</time>
      </trkpt>
      <trkpt lat="48.19615" lon="-2.99235">
        <ele>134</ele>
        <time>2020-07-24T09:27:11.000Z</time>
      </trkpt>
      <trkpt lat="48.19448" lon="-2.99252">
        <ele>127.699219</ele>
        <time>2020-07-24T09:27:31.000Z</time>
      </trkpt>
      <trkpt lat="48.19448" lon="-2.99252">
        <ele>127.699219</ele>
        <time>2020-07-24T09:27:31.000Z</time>
      </trkpt>
      <trkpt lat="48.19448" lon="-2.99252">
        <ele>127.699219</ele>
        <time>2020-07-24T09:27:31.000Z</time>
      </trkpt>
      <trkpt lat="48.19448" lon="-2.99252">
        <ele>127.699219</ele>
        <time>2020-07-24T09:27:31.000Z</time>
      </trkpt>
      <trkpt lat="48.19432" lon="-2.99255">
        <ele>126.5</ele>
        <time>2020-07-24T09:27:33.000Z</time>
      </trkpt>
      <trkpt lat="48.19417" lon="-2.9926">
        <ele>126.097656</ele>
        <time>2020-07-24T09:27:35.000Z</time>
      </trkpt>
      <trkpt lat="48.19403" lon="-2.99265">
        <ele>126</ele>
        <time>2020-07-24T09:27:37.000Z</time>
      </trkpt>
      <trkpt lat="48.19391" lon="-2.99274">
        <ele>125.898438</ele>
        <time>2020-07-24T09:27:39.000Z</time>
      </trkpt>
      <trkpt lat="48.1938" lon="-2.99283">
        <ele>125.796875</ele>
        <time>2020-07-24T09:27:41.000Z</time>
      </trkpt>
      <trkpt lat="48.1937" lon="-2.99294">
        <ele>125.699219</ele>
        <time>2020-07-24T09:27:43.000Z</time>
      </trkpt>
      <trkpt lat="48.19334" lon="-2.99335">
        <ele>125</ele>
        <time>2020-07-24T09:27:51.000Z</time>
      </trkpt>
      <trkpt lat="48.19296" lon="-2.99382">
        <ele>124</ele>
        <time>2020-07-24T09:27:59.000Z</time>
      </trkpt>
      <trkpt lat="48.1926" lon="-2.99436">
        <ele>122.898438</ele>
        <time>2020-07-24T09:28:07.000Z</time>
      </trkpt>
      <trkpt lat="48.19154" lon="-2.99611">
        <ele>119.398438</ele>
        <time>2020-07-24T09:28:31.000Z</time>
      </trkpt>
      <trkpt lat="48.19129" lon="-2.9966">
        <ele>118.796875</ele>
        <time>2020-07-24T09:28:37.000Z</time>
      </trkpt>
      <trkpt lat="48.19059" lon="-2.998">
        <ele>117.097656</ele>
        <time>2020-07-24T09:28:55.000Z</time>
      </trkpt>
      <trkpt lat="48.18974" lon="-2.99938">
        <ele>116</ele>
        <time>2020-07-24T09:29:15.000Z</time>
      </trkpt>
      <trkpt lat="48.18635" lon="-3.00436">
        <ele>119.199219</ele>
        <time>2020-07-24T09:30:49.000Z</time>
      </trkpt>
      <trkpt lat="48.18626" lon="-3.00447">
        <ele>119.398438</ele>
        <time>2020-07-24T09:30:52.000Z</time>
      </trkpt>
      <trkpt lat="48.18605" lon="-3.0047">
        <ele>119.796875</ele>
        <time>2020-07-24T09:30:58.000Z</time>
      </trkpt>
      <trkpt lat="48.18593" lon="-3.00479">
        <ele>120</ele>
        <time>2020-07-24T09:31:01.000Z</time>
      </trkpt>
      <trkpt lat="48.18568" lon="-3.00495">
        <ele>119.898438</ele>
        <time>2020-07-24T09:31:07.000Z</time>
      </trkpt>
      <trkpt lat="48.18476" lon="-3.00547">
        <ele>120.597656</ele>
        <time>2020-07-24T09:31:29.000Z</time>
      </trkpt>
      <trkpt lat="48.18457" lon="-3.00563">
        <ele>119.5</ele>
        <time>2020-07-24T09:31:33.000Z</time>
      </trkpt>
      <trkpt lat="48.18375" lon="-3.00634">
        <ele>114</ele>
        <time>2020-07-24T09:31:47.000Z</time>
      </trkpt>
      <trkpt lat="48.18344" lon="-3.00654">
        <ele>111.597656</ele>
        <time>2020-07-24T09:31:51.000Z</time>
      </trkpt>
      <trkpt lat="48.18327" lon="-3.00663">
        <ele>111.097656</ele>
        <time>2020-07-24T09:31:53.000Z</time>
      </trkpt>
      <trkpt lat="48.18274" lon="-3.00683">
        <ele>109</ele>
        <time>2020-07-24T09:31:59.000Z</time>
      </trkpt>
      <trkpt lat="48.18256" lon="-3.00688">
        <ele>108.097656</ele>
        <time>2020-07-24T09:32:01.000Z</time>
      </trkpt>
      <trkpt lat="48.18247" lon="-3.00689">
        <ele>107.699219</ele>
        <time>2020-07-24T09:32:02.000Z</time>
      </trkpt>
      <trkpt lat="48.18238" lon="-3.00689">
        <ele>107.199219</ele>
        <time>2020-07-24T09:32:03.000Z</time>
      </trkpt>
      <trkpt lat="48.18134" lon="-3.00692">
        <ele>101.199219</ele>
        <time>2020-07-24T09:32:14.000Z</time>
      </trkpt>
      <trkpt lat="48.18115" lon="-3.00696">
        <ele>99.699219</ele>
        <time>2020-07-24T09:32:16.000Z</time>
      </trkpt>
      <trkpt lat="48.18106" lon="-3.007">
        <ele>98.898438</ele>
        <time>2020-07-24T09:32:17.000Z</time>
      </trkpt>
      <trkpt lat="48.18097" lon="-3.00706">
        <ele>98.199219</ele>
        <time>2020-07-24T09:32:18.000Z</time>
      </trkpt>
      <trkpt lat="48.18088" lon="-3.00713">
        <ele>97.597656</ele>
        <time>2020-07-24T09:32:19.000Z</time>
      </trkpt>
      <trkpt lat="48.1808" lon="-3.00722">
        <ele>97</ele>
        <time>2020-07-24T09:32:20.000Z</time>
      </trkpt>
      <trkpt lat="48.18073" lon="-3.00733">
        <ele>96.597656</ele>
        <time>2020-07-24T09:32:21.000Z</time>
      </trkpt>
      <trkpt lat="48.18067" lon="-3.00744">
        <ele>96.296875</ele>
        <time>2020-07-24T09:32:22.000Z</time>
      </trkpt>
      <trkpt lat="48.18023" lon="-3.00828">
        <ele>94.398438</ele>
        <time>2020-07-24T09:32:30.000Z</time>
      </trkpt>
      <trkpt lat="48.18011" lon="-3.00843">
        <ele>94.097656</ele>
        <time>2020-07-24T09:32:32.000Z</time>
      </trkpt>
      <trkpt lat="48.17903" lon="-3.00975">
        <ele>93.199219</ele>
        <time>2020-07-24T09:32:52.000Z</time>
      </trkpt>
      <trkpt lat="48.17891" lon="-3.00984">
        <ele>93.097656</ele>
        <time>2020-07-24T09:32:54.000Z</time>
      </trkpt>
      <trkpt lat="48.17878" lon="-3.0099">
        <ele>93</ele>
        <time>2020-07-24T09:32:56.000Z</time>
      </trkpt>
      <trkpt lat="48.17864" lon="-3.00993">
        <ele>93</ele>
        <time>2020-07-24T09:32:58.000Z</time>
      </trkpt>
      <trkpt lat="48.1785" lon="-3.00993">
        <ele>93</ele>
        <time>2020-07-24T09:33:00.000Z</time>
      </trkpt>
      <trkpt lat="48.17795" lon="-3.00986">
        <ele>92.699219</ele>
        <time>2020-07-24T09:33:08.000Z</time>
      </trkpt>
      <trkpt lat="48.17742" lon="-3.00977">
        <ele>92.398438</ele>
        <time>2020-07-24T09:33:16.000Z</time>
      </trkpt>
      <trkpt lat="48.17729" lon="-3.00973">
        <ele>92.5</ele>
        <time>2020-07-24T09:33:18.000Z</time>
      </trkpt>
      <trkpt lat="48.17717" lon="-3.00969">
        <ele>92.398438</ele>
        <time>2020-07-24T09:33:20.000Z</time>
      </trkpt>
      <trkpt lat="48.17705" lon="-3.00963">
        <ele>92.398438</ele>
        <time>2020-07-24T09:33:22.000Z</time>
      </trkpt>
      <trkpt lat="48.17693" lon="-3.00957">
        <ele>92.398438</ele>
        <time>2020-07-24T09:33:24.000Z</time>
      </trkpt>
      <trkpt lat="48.17682" lon="-3.00949">
        <ele>92.398438</ele>
        <time>2020-07-24T09:33:26.000Z</time>
      </trkpt>
      <trkpt lat="48.17651" lon="-3.00924">
        <ele>91.5</ele>
        <time>2020-07-24T09:33:32.000Z</time>
      </trkpt>
      <trkpt lat="48.17621" lon="-3.00896">
        <ele>91.398438</ele>
        <time>2020-07-24T09:33:38.000Z</time>
      </trkpt>
      <trkpt lat="48.17586" lon="-3.00861">
        <ele>92.398438</ele>
        <time>2020-07-24T09:33:46.000Z</time>
      </trkpt>
      <trkpt lat="48.17574" lon="-3.00861">
        <ele>92.398438</ele>
        <time>2020-07-24T09:33:49.000Z</time>
      </trkpt>
      <trkpt lat="48.17566" lon="-3.00873">
        <ele>92.097656</ele>
        <time>2020-07-24T09:33:52.000Z</time>
      </trkpt>
      <trkpt lat="48.1756" lon="-3.00889">
        <ele>91.699219</ele>
        <time>2020-07-24T09:33:55.000Z</time>
      </trkpt>
      <trkpt lat="48.17557" lon="-3.00902">
        <ele>91</ele>
        <time>2020-07-24T09:33:57.000Z</time>
      </trkpt>
      <trkpt lat="48.17555" lon="-3.00917">
        <ele>90.296875</ele>
        <time>2020-07-24T09:33:59.000Z</time>
      </trkpt>
      <trkpt lat="48.17554" lon="-3.00935">
        <ele>89.398438</ele>
        <time>2020-07-24T09:34:01.000Z</time>
      </trkpt>
      <trkpt lat="48.17556" lon="-3.00953">
        <ele>88.898438</ele>
        <time>2020-07-24T09:34:03.000Z</time>
      </trkpt>
      <trkpt lat="48.17582" lon="-3.01243">
        <ele>81.398438</ele>
        <time>2020-07-24T09:34:35.000Z</time>
      </trkpt>
      <trkpt lat="48.17584" lon="-3.01259">
        <ele>81</ele>
        <time>2020-07-24T09:34:38.000Z</time>
      </trkpt>
      <trkpt lat="48.1759" lon="-3.01271">
        <ele>80.296875</ele>
        <time>2020-07-24T09:34:42.000Z</time>
      </trkpt>
      <trkpt lat="48.17598" lon="-3.01279">
        <ele>79.199219</ele>
        <time>2020-07-24T09:34:45.000Z</time>
      </trkpt>
      <trkpt lat="48.17609" lon="-3.01287">
        <ele>78.296875</ele>
        <time>2020-07-24T09:34:48.000Z</time>
      </trkpt>
      <trkpt lat="48.17741" lon="-3.01376">
        <ele>85.597656</ele>
        <time>2020-07-24T09:35:24.000Z</time>
      </trkpt>
      <trkpt lat="48.17751" lon="-3.01378">
        <ele>86.296875</ele>
        <time>2020-07-24T09:35:27.000Z</time>
      </trkpt>
      <trkpt lat="48.17761" lon="-3.01379">
        <ele>87</ele>
        <time>2020-07-24T09:35:30.000Z</time>
      </trkpt>
      <trkpt lat="48.17771" lon="-3.01378">
        <ele>87.5</ele>
        <time>2020-07-24T09:35:33.000Z</time>
      </trkpt>
      <trkpt lat="48.17781" lon="-3.01374">
        <ele>88</ele>
        <time>2020-07-24T09:35:36.000Z</time>
      </trkpt>
      <trkpt lat="48.17791" lon="-3.01369">
        <ele>90.898438</ele>
        <time>2020-07-24T09:35:40.000Z</time>
      </trkpt>
      <trkpt lat="48.178" lon="-3.01362">
        <ele>90.898438</ele>
        <time>2020-07-24T09:36:13.000Z</time>
      </trkpt>
      <trkpt lat="48.17809" lon="-3.01358">
        <ele>90.898438</ele>
        <time>2020-07-24T09:36:17.000Z</time>
      </trkpt>
      <trkpt lat="48.17818" lon="-3.01352">
        <ele>91</ele>
        <time>2020-07-24T09:36:20.000Z</time>
      </trkpt>
      <trkpt lat="48.17828" lon="-3.01345">
        <ele>91.199219</ele>
        <time>2020-07-24T09:36:23.000Z</time>
      </trkpt>
      <trkpt lat="48.17898" lon="-3.01307">
        <ele>90.199219</ele>
        <time>2020-07-24T09:36:38.000Z</time>
      </trkpt>
      <trkpt lat="48.17907" lon="-3.01303">
        <ele>90.097656</ele>
        <time>2020-07-24T09:36:40.000Z</time>
      </trkpt>
      <trkpt lat="48.17936" lon="-3.01294">
        <ele>89.597656</ele>
        <time>2020-07-24T09:36:46.000Z</time>
      </trkpt>
      <trkpt lat="48.17986" lon="-3.01282">
        <ele>88.699219</ele>
        <time>2020-07-24T09:36:56.000Z</time>
      </trkpt>
      <trkpt lat="48.17997" lon="-3.01281">
        <ele>88.5</ele>
        <time>2020-07-24T09:36:58.000Z</time>
      </trkpt>
      <trkpt lat="48.18017" lon="-3.01283">
        <ele>87.699219</ele>
        <time>2020-07-24T09:37:02.000Z</time>
      </trkpt>
      <trkpt lat="48.18038" lon="-3.01288">
        <ele>86.597656</ele>
        <time>2020-07-24T09:37:06.000Z</time>
      </trkpt>
      <trkpt lat="48.18156" lon="-3.01316">
        <ele>86.898438</ele>
        <time>2020-07-24T09:37:33.000Z</time>
      </trkpt>
      <trkpt lat="48.18168" lon="-3.01322">
        <ele>87</ele>
        <time>2020-07-24T09:37:36.000Z</time>
      </trkpt>
      <trkpt lat="48.1818" lon="-3.01329">
        <ele>87.398438</ele>
        <time>2020-07-24T09:37:39.000Z</time>
      </trkpt>
      <trkpt lat="48.18189" lon="-3.0133">
        <ele>87.199219</ele>
        <time>2020-07-24T09:37:41.000Z</time>
      </trkpt>
      <trkpt lat="48.18312" lon="-3.01358">
        <ele>93.5</ele>
        <time>2020-07-24T09:38:10.000Z</time>
      </trkpt>
      <trkpt lat="48.18323" lon="-3.01358">
        <ele>93.597656</ele>
        <time>2020-07-24T09:38:13.000Z</time>
      </trkpt>
      <trkpt lat="48.18334" lon="-3.01361">
        <ele>93.097656</ele>
        <time>2020-07-24T09:38:16.000Z</time>
      </trkpt>
      <trkpt lat="48.18344" lon="-3.01367">
        <ele>92.898438</ele>
        <time>2020-07-24T09:38:19.000Z</time>
      </trkpt>
      <trkpt lat="48.18353" lon="-3.01373">
        <ele>92.296875</ele>
        <time>2020-07-24T09:38:22.000Z</time>
      </trkpt>
      <trkpt lat="48.18361" lon="-3.0138">
        <ele>91.597656</ele>
        <time>2020-07-24T09:38:25.000Z</time>
      </trkpt>
      <trkpt lat="48.18368" lon="-3.01389">
        <ele>91.5</ele>
        <time>2020-07-24T09:38:28.000Z</time>
      </trkpt>
      <trkpt lat="48.18376" lon="-3.01401">
        <ele>92.097656</ele>
        <time>2020-07-24T09:38:32.000Z</time>
      </trkpt>
      <trkpt lat="48.18382" lon="-3.01415">
        <ele>92.796875</ele>
        <time>2020-07-24T09:38:36.000Z</time>
      </trkpt>
      <trkpt lat="48.18385" lon="-3.01431">
        <ele>93.097656</ele>
        <time>2020-07-24T09:38:40.000Z</time>
      </trkpt>
      <trkpt lat="48.18388" lon="-3.01447">
        <ele>93.898438</ele>
        <time>2020-07-24T09:38:44.000Z</time>
      </trkpt>
      <trkpt lat="48.1839" lon="-3.0146">
        <ele>94.699219</ele>
        <time>2020-07-24T09:38:47.000Z</time>
      </trkpt>
      <trkpt lat="48.18395" lon="-3.01525">
        <ele>102.296875</ele>
        <time>2020-07-24T09:39:03.000Z</time>
      </trkpt>
      <trkpt lat="48.18399" lon="-3.0154">
        <ele>104.5</ele>
        <time>2020-07-24T09:39:07.000Z</time>
      </trkpt>
      <trkpt lat="48.18405" lon="-3.01553">
        <ele>106.5</ele>
        <time>2020-07-24T09:39:11.000Z</time>
      </trkpt>
      <trkpt lat="48.18414" lon="-3.01564">
        <ele>107.097656</ele>
        <time>2020-07-24T09:39:15.000Z</time>
      </trkpt>
      <trkpt lat="48.18424" lon="-3.01572">
        <ele>106.097656</ele>
        <time>2020-07-24T09:39:19.000Z</time>
      </trkpt>
      <trkpt lat="48.18445" lon="-3.01586">
        <ele>105.097656</ele>
        <time>2020-07-24T09:39:27.000Z</time>
      </trkpt>
      <trkpt lat="48.18454" lon="-3.01596">
        <ele>105.796875</ele>
        <time>2020-07-24T09:39:31.000Z</time>
      </trkpt>
      <trkpt lat="48.18461" lon="-3.01604">
        <ele>105.699219</ele>
        <time>2020-07-24T09:39:34.000Z</time>
      </trkpt>
      <trkpt lat="48.18468" lon="-3.01619">
        <ele>105.796875</ele>
        <time>2020-07-24T09:39:38.000Z</time>
      </trkpt>
      <trkpt lat="48.18472" lon="-3.01636">
        <ele>106.597656</ele>
        <time>2020-07-24T09:39:42.000Z</time>
      </trkpt>
      <trkpt lat="48.1851" lon="-3.01785">
        <ele>123.699219</ele>
        <time>2020-07-24T09:40:17.000Z</time>
      </trkpt>
      <trkpt lat="48.18513" lon="-3.01803">
        <ele>124.296875</ele>
        <time>2020-07-24T09:40:21.000Z</time>
      </trkpt>
      <trkpt lat="48.18516" lon="-3.0182">
        <ele>125</ele>
        <time>2020-07-24T09:40:25.000Z</time>
      </trkpt>
      <trkpt lat="48.1852" lon="-3.01832">
        <ele>126</ele>
        <time>2020-07-24T09:40:28.000Z</time>
      </trkpt>
      <trkpt lat="48.1854" lon="-3.01913">
        <ele>129.898438</ele>
        <time>2020-07-24T09:40:47.000Z</time>
      </trkpt>
      <trkpt lat="48.18564" lon="-3.02023">
        <ele>133.699219</ele>
        <time>2020-07-24T09:41:13.000Z</time>
      </trkpt>
      <trkpt lat="48.18566" lon="-3.02036">
        <ele>134</ele>
        <time>2020-07-24T09:41:16.000Z</time>
      </trkpt>
      <trkpt lat="48.18567" lon="-3.0205">
        <ele>134.398438</ele>
        <time>2020-07-24T09:41:19.000Z</time>
      </trkpt>
      <trkpt lat="48.18567" lon="-3.02096">
        <ele>138.699219</ele>
        <time>2020-07-24T09:41:29.000Z</time>
      </trkpt>
      <trkpt lat="48.18568" lon="-3.02146">
        <ele>138.398438</ele>
        <time>2020-07-24T09:41:41.000Z</time>
      </trkpt>
      <trkpt lat="48.1857" lon="-3.02162">
        <ele>137.5</ele>
        <time>2020-07-24T09:41:45.000Z</time>
      </trkpt>
      <trkpt lat="48.18572" lon="-3.02177">
        <ele>137.5</ele>
        <time>2020-07-24T09:41:49.000Z</time>
      </trkpt>
      <trkpt lat="48.18572" lon="-3.02194">
        <ele>138</ele>
        <time>2020-07-24T09:41:53.000Z</time>
      </trkpt>
      <trkpt lat="48.18564" lon="-3.02395">
        <ele>150.296875</ele>
        <time>2020-07-24T09:42:37.000Z</time>
      </trkpt>
      <trkpt lat="48.18565" lon="-3.02412">
        <ele>151.597656</ele>
        <time>2020-07-24T09:42:41.000Z</time>
      </trkpt>
      <trkpt lat="48.18567" lon="-3.02429">
        <ele>152.898438</ele>
        <time>2020-07-24T09:42:45.000Z</time>
      </trkpt>
      <trkpt lat="48.18569" lon="-3.02446">
        <ele>154</ele>
        <time>2020-07-24T09:42:49.000Z</time>
      </trkpt>
      <trkpt lat="48.18575" lon="-3.02462">
        <ele>154.796875</ele>
        <time>2020-07-24T09:42:53.000Z</time>
      </trkpt>
      <trkpt lat="48.18581" lon="-3.02476">
        <ele>155.097656</ele>
        <time>2020-07-24T09:42:57.000Z</time>
      </trkpt>
      <trkpt lat="48.18614" lon="-3.0254">
        <ele>155.296875</ele>
        <time>2020-07-24T09:43:15.000Z</time>
      </trkpt>
      <trkpt lat="48.18622" lon="-3.02552">
        <ele>155.199219</ele>
        <time>2020-07-24T09:43:19.000Z</time>
      </trkpt>
      <trkpt lat="48.18631" lon="-3.02561">
        <ele>155.597656</ele>
        <time>2020-07-24T09:43:23.000Z</time>
      </trkpt>
      <trkpt lat="48.18643" lon="-3.02567">
        <ele>156.199219</ele>
        <time>2020-07-24T09:43:27.000Z</time>
      </trkpt>
      <trkpt lat="48.18652" lon="-3.02568">
        <ele>156.898438</ele>
        <time>2020-07-24T09:43:30.000Z</time>
      </trkpt>
      <trkpt lat="48.18661" lon="-3.02567">
        <ele>157.898438</ele>
        <time>2020-07-24T09:43:33.000Z</time>
      </trkpt>
      <trkpt lat="48.18672" lon="-3.02562">
        <ele>158.296875</ele>
        <time>2020-07-24T09:43:37.000Z</time>
      </trkpt>
      <trkpt lat="48.18683" lon="-3.02553">
        <ele>157.796875</ele>
        <time>2020-07-24T09:43:41.000Z</time>
      </trkpt>
      <trkpt lat="48.18692" lon="-3.02544">
        <ele>157.296875</ele>
        <time>2020-07-24T09:43:45.000Z</time>
      </trkpt>
      <trkpt lat="48.18787" lon="-3.02456">
        <ele>159.398438</ele>
        <time>2020-07-24T09:44:16.000Z</time>
      </trkpt>
      <trkpt lat="48.18797" lon="-3.0245">
        <ele>160.199219</ele>
        <time>2020-07-24T09:44:19.000Z</time>
      </trkpt>
      <trkpt lat="48.18816" lon="-3.02439">
        <ele>160.699219</ele>
        <time>2020-07-24T09:44:25.000Z</time>
      </trkpt>
      <trkpt lat="48.18835" lon="-3.02431">
        <ele>161.597656</ele>
        <time>2020-07-24T09:44:31.000Z</time>
      </trkpt>
      <trkpt lat="48.18953" lon="-3.0239">
        <ele>172.097656</ele>
        <time>2020-07-24T09:45:08.000Z</time>
      </trkpt>
      <trkpt lat="48.18965" lon="-3.02392">
        <ele>172.699219</ele>
        <time>2020-07-24T09:45:12.000Z</time>
      </trkpt>
      <trkpt lat="48.18974" lon="-3.02397">
        <ele>173.5</ele>
        <time>2020-07-24T09:45:15.000Z</time>
      </trkpt>
      <trkpt lat="48.18983" lon="-3.02402">
        <ele>174.796875</ele>
        <time>2020-07-24T09:45:18.000Z</time>
      </trkpt>
      <trkpt lat="48.18992" lon="-3.02412">
        <ele>176.097656</ele>
        <time>2020-07-24T09:45:22.000Z</time>
      </trkpt>
      <trkpt lat="48.19" lon="-3.02425">
        <ele>177.699219</ele>
        <time>2020-07-24T09:45:26.000Z</time>
      </trkpt>
      <trkpt lat="48.19007" lon="-3.02439">
        <ele>179.097656</ele>
        <time>2020-07-24T09:45:30.000Z</time>
      </trkpt>
      <trkpt lat="48.1902" lon="-3.02469">
        <ele>182.199219</ele>
        <time>2020-07-24T09:45:38.000Z</time>
      </trkpt>
      <trkpt lat="48.19031" lon="-3.02496">
        <ele>184.5</ele>
        <time>2020-07-24T09:45:45.000Z</time>
      </trkpt>
      <trkpt lat="48.19034" lon="-3.02509">
        <ele>185.699219</ele>
        <time>2020-07-24T09:45:48.000Z</time>
      </trkpt>
      <trkpt lat="48.19041" lon="-3.02534">
        <ele>187.296875</ele>
        <time>2020-07-24T09:45:54.000Z</time>
      </trkpt>
      <trkpt lat="48.19046" lon="-3.02561">
        <ele>189.097656</ele>
        <time>2020-07-24T09:46:00.000Z</time>
      </trkpt>
      <trkpt lat="48.19051" lon="-3.02588">
        <ele>189.796875</ele>
        <time>2020-07-24T09:46:06.000Z</time>
      </trkpt>
      <trkpt lat="48.19052" lon="-3.02603">
        <ele>190.199219</ele>
        <time>2020-07-24T09:46:09.000Z</time>
      </trkpt>
      <trkpt lat="48.19052" lon="-3.02619">
        <ele>190.699219</ele>
        <time>2020-07-24T09:46:12.000Z</time>
      </trkpt>
      <trkpt lat="48.1905" lon="-3.02635">
        <ele>191.199219</ele>
        <time>2020-07-24T09:46:15.000Z</time>
      </trkpt>
      <trkpt lat="48.19047" lon="-3.0265">
        <ele>191.898438</ele>
        <time>2020-07-24T09:46:18.000Z</time>
      </trkpt>
      <trkpt lat="48.19044" lon="-3.02664">
        <ele>192.597656</ele>
        <time>2020-07-24T09:46:21.000Z</time>
      </trkpt>
      <trkpt lat="48.19013" lon="-3.02774">
        <ele>197.898438</ele>
        <time>2020-07-24T09:46:45.000Z</time>
      </trkpt>
      <trkpt lat="48.1901" lon="-3.02789">
        <ele>198.597656</ele>
        <time>2020-07-24T09:46:48.000Z</time>
      </trkpt>
      <trkpt lat="48.19009" lon="-3.02804">
        <ele>199.199219</ele>
        <time>2020-07-24T09:46:51.000Z</time>
      </trkpt>
      <trkpt lat="48.1901" lon="-3.02818">
        <ele>199.699219</ele>
        <time>2020-07-24T09:46:54.000Z</time>
      </trkpt>
      <trkpt lat="48.19013" lon="-3.02832">
        <ele>200</ele>
        <time>2020-07-24T09:46:57.000Z</time>
      </trkpt>
      <trkpt lat="48.19017" lon="-3.02846">
        <ele>200.199219</ele>
        <time>2020-07-24T09:47:00.000Z</time>
      </trkpt>
      <trkpt lat="48.1903" lon="-3.0289">
        <ele>200.199219</ele>
        <time>2020-07-24T09:47:09.000Z</time>
      </trkpt>
      <trkpt lat="48.19086" lon="-3.03074">
        <ele>194.597656</ele>
        <time>2020-07-24T09:47:33.000Z</time>
      </trkpt>
      <trkpt lat="48.19092" lon="-3.0309">
        <ele>194.398438</ele>
        <time>2020-07-24T09:47:35.000Z</time>
      </trkpt>
      <trkpt lat="48.19098" lon="-3.03106">
        <ele>194.199219</ele>
        <time>2020-07-24T09:47:37.000Z</time>
      </trkpt>
      <trkpt lat="48.19105" lon="-3.03119">
        <ele>194.199219</ele>
        <time>2020-07-24T09:47:39.000Z</time>
      </trkpt>
      <trkpt lat="48.19124" lon="-3.03155">
        <ele>194.796875</ele>
        <time>2020-07-24T09:47:45.000Z</time>
      </trkpt>
      <trkpt lat="48.192" lon="-3.03297">
        <ele>202.597656</ele>
        <time>2020-07-24T09:48:22.000Z</time>
      </trkpt>
      <trkpt lat="48.19205" lon="-3.03309">
        <ele>203.5</ele>
        <time>2020-07-24T09:48:25.000Z</time>
      </trkpt>
      <trkpt lat="48.19209" lon="-3.03321">
        <ele>204.398438</ele>
        <time>2020-07-24T09:48:28.000Z</time>
      </trkpt>
      <trkpt lat="48.19212" lon="-3.03334">
        <ele>205.296875</ele>
        <time>2020-07-24T09:48:31.000Z</time>
      </trkpt>
      <trkpt lat="48.19217" lon="-3.03361">
        <ele>206.898438</ele>
        <time>2020-07-24T09:48:37.000Z</time>
      </trkpt>
      <trkpt lat="48.19252" lon="-3.03565">
        <ele>212.597656</ele>
        <time>2020-07-24T09:49:19.000Z</time>
      </trkpt>
      <trkpt lat="48.19255" lon="-3.03595">
        <ele>213.398438</ele>
        <time>2020-07-24T09:49:25.000Z</time>
      </trkpt>
      <trkpt lat="48.19265" lon="-3.03713">
        <ele>216.699219</ele>
        <time>2020-07-24T09:49:49.000Z</time>
      </trkpt>
      <trkpt lat="48.19278" lon="-3.03845">
        <ele>221.699219</ele>
        <time>2020-07-24T09:50:16.000Z</time>
      </trkpt>
      <trkpt lat="48.19285" lon="-3.03888">
        <ele>223.5</ele>
        <time>2020-07-24T09:50:25.000Z</time>
      </trkpt>
      <trkpt lat="48.193" lon="-3.03957">
        <ele>225.796875</ele>
        <time>2020-07-24T09:50:40.000Z</time>
      </trkpt>
      <trkpt lat="48.19355" lon="-3.04206">
        <ele>229.296875</ele>
        <time>2020-07-24T09:51:28.000Z</time>
      </trkpt>
      <trkpt lat="48.19374" lon="-3.04281">
        <ele>230.097656</ele>
        <time>2020-07-24T09:51:43.000Z</time>
      </trkpt>
      <trkpt lat="48.1938" lon="-3.04295">
        <ele>230</ele>
        <time>2020-07-24T09:51:46.000Z</time>
      </trkpt>
      <trkpt lat="48.19385" lon="-3.04309">
        <ele>229.898438</ele>
        <time>2020-07-24T09:51:49.000Z</time>
      </trkpt>
      <trkpt lat="48.19392" lon="-3.04321">
        <ele>229.597656</ele>
        <time>2020-07-24T09:51:52.000Z</time>
      </trkpt>
      <trkpt lat="48.19475" lon="-3.04468">
        <ele>231.097656</ele>
        <time>2020-07-24T09:52:25.000Z</time>
      </trkpt>
      <trkpt lat="48.19509" lon="-3.04552">
        <ele>233.296875</ele>
        <time>2020-07-24T09:52:43.000Z</time>
      </trkpt>
      <trkpt lat="48.19514" lon="-3.04567">
        <ele>233.796875</ele>
        <time>2020-07-24T09:52:46.000Z</time>
      </trkpt>
      <trkpt lat="48.19518" lon="-3.04582">
        <ele>234.199219</ele>
        <time>2020-07-24T09:52:49.000Z</time>
      </trkpt>
      <trkpt lat="48.19521" lon="-3.04598">
        <ele>234.5</ele>
        <time>2020-07-24T09:52:52.000Z</time>
      </trkpt>
      <trkpt lat="48.19522" lon="-3.04614">
        <ele>234.796875</ele>
        <time>2020-07-24T09:52:55.000Z</time>
      </trkpt>
      <trkpt lat="48.19523" lon="-3.04666">
        <ele>235.597656</ele>
        <time>2020-07-24T09:53:04.000Z</time>
      </trkpt>
      <trkpt lat="48.19527" lon="-3.04797">
        <ele>237.597656</ele>
        <time>2020-07-24T09:53:25.000Z</time>
      </trkpt>
      <trkpt lat="48.19528" lon="-3.04816">
        <ele>237.597656</ele>
        <time>2020-07-24T09:53:28.000Z</time>
      </trkpt>
      <trkpt lat="48.19534" lon="-3.04854">
        <ele>237.199219</ele>
        <time>2020-07-24T09:53:34.000Z</time>
      </trkpt>
      <trkpt lat="48.19562" lon="-3.05006">
        <ele>232</ele>
        <time>2020-07-24T09:53:54.000Z</time>
      </trkpt>
      <trkpt lat="48.19571" lon="-3.05047">
        <ele>230.097656</ele>
        <time>2020-07-24T09:53:58.000Z</time>
      </trkpt>
      <trkpt lat="48.19578" lon="-3.05069">
        <ele>229.097656</ele>
        <time>2020-07-24T09:54:00.000Z</time>
      </trkpt>
      <trkpt lat="48.19585" lon="-3.0509">
        <ele>228.199219</ele>
        <time>2020-07-24T09:54:02.000Z</time>
      </trkpt>
      <trkpt lat="48.19593" lon="-3.05111">
        <ele>227.097656</ele>
        <time>2020-07-24T09:54:04.000Z</time>
      </trkpt>
      <trkpt lat="48.19612" lon="-3.05153">
        <ele>224.796875</ele>
        <time>2020-07-24T09:54:08.000Z</time>
      </trkpt>
      <trkpt lat="48.19661" lon="-3.05261">
        <ele>220.398438</ele>
        <time>2020-07-24T09:54:18.000Z</time>
      </trkpt>
      <trkpt lat="48.19669" lon="-3.05284">
        <ele>219.796875</ele>
        <time>2020-07-24T09:54:20.000Z</time>
      </trkpt>
      <trkpt lat="48.19675" lon="-3.05308">
        <ele>219.296875</ele>
        <time>2020-07-24T09:54:22.000Z</time>
      </trkpt>
      <trkpt lat="48.19694" lon="-3.05396">
        <ele>217.898438</ele>
        <time>2020-07-24T09:54:30.000Z</time>
      </trkpt>
      <trkpt lat="48.19697" lon="-3.05417">
        <ele>217.898438</ele>
        <time>2020-07-24T09:54:32.000Z</time>
      </trkpt>
      <trkpt lat="48.19699" lon="-3.05438">
        <ele>217.796875</ele>
        <time>2020-07-24T09:54:34.000Z</time>
      </trkpt>
      <trkpt lat="48.197" lon="-3.05459">
        <ele>217.699219</ele>
        <time>2020-07-24T09:54:36.000Z</time>
      </trkpt>
      <trkpt lat="48.197" lon="-3.05479">
        <ele>217.699219</ele>
        <time>2020-07-24T09:54:38.000Z</time>
      </trkpt>
      <trkpt lat="48.19699" lon="-3.05498">
        <ele>217.5</ele>
        <time>2020-07-24T09:54:40.000Z</time>
      </trkpt>
      <trkpt lat="48.1969" lon="-3.05584">
        <ele>217.398438</ele>
        <time>2020-07-24T09:54:50.000Z</time>
      </trkpt>
      <trkpt lat="48.19686" lon="-3.05613">
        <ele>217.597656</ele>
        <time>2020-07-24T09:54:54.000Z</time>
      </trkpt>
      <trkpt lat="48.19623" lon="-3.06029">
        <ele>220</ele>
        <time>2020-07-24T09:55:58.000Z</time>
      </trkpt>
      <trkpt lat="48.1959" lon="-3.06188">
        <ele>216.699219</ele>
        <time>2020-07-24T09:56:19.000Z</time>
      </trkpt>
      <trkpt lat="48.19587" lon="-3.06208">
        <ele>216</ele>
        <time>2020-07-24T09:56:21.000Z</time>
      </trkpt>
      <trkpt lat="48.19584" lon="-3.06251">
        <ele>214.296875</ele>
        <time>2020-07-24T09:56:25.000Z</time>
      </trkpt>
      <trkpt lat="48.19582" lon="-3.06322">
        <ele>211</ele>
        <time>2020-07-24T09:56:31.000Z</time>
      </trkpt>
      <trkpt lat="48.19577" lon="-3.06346">
        <ele>209.699219</ele>
        <time>2020-07-24T09:56:33.000Z</time>
      </trkpt>
      <trkpt lat="48.19569" lon="-3.06369">
        <ele>208.296875</ele>
        <time>2020-07-24T09:56:35.000Z</time>
      </trkpt>
      <trkpt lat="48.19557" lon="-3.0639">
        <ele>207</ele>
        <time>2020-07-24T09:56:37.000Z</time>
      </trkpt>
      <trkpt lat="48.19545" lon="-3.06408">
        <ele>205.898438</ele>
        <time>2020-07-24T09:56:39.000Z</time>
      </trkpt>
      <trkpt lat="48.19478" lon="-3.065">
        <ele>199.5</ele>
        <time>2020-07-24T09:56:53.000Z</time>
      </trkpt>
      <trkpt lat="48.1947" lon="-3.06508">
        <ele>199.796875</ele>
        <time>2020-07-24T09:56:56.000Z</time>
      </trkpt>
      <trkpt lat="48.19465" lon="-3.0652">
        <ele>198.699219</ele>
        <time>2020-07-24T09:57:21.000Z</time>
      </trkpt>
      <trkpt lat="48.19454" lon="-3.06547">
        <ele>196.398438</ele>
        <time>2020-07-24T09:57:30.000Z</time>
      </trkpt>
      <trkpt lat="48.19453" lon="-3.06561">
        <ele>197.296875</ele>
        <time>2020-07-24T09:57:34.000Z</time>
      </trkpt>
      <trkpt lat="48.19454" lon="-3.06577">
        <ele>196.398438</ele>
        <time>2020-07-24T09:57:38.000Z</time>
      </trkpt>
      <trkpt lat="48.19452" lon="-3.06593">
        <ele>194.597656</ele>
        <time>2020-07-24T09:57:41.000Z</time>
      </trkpt>
      <trkpt lat="48.19448" lon="-3.06613">
        <ele>193.597656</ele>
        <time>2020-07-24T09:57:44.000Z</time>
      </trkpt>
      <trkpt lat="48.19436" lon="-3.06677">
        <ele>190.5</ele>
        <time>2020-07-24T09:57:54.000Z</time>
      </trkpt>
      <trkpt lat="48.19431" lon="-3.06692">
        <ele>189.597656</ele>
        <time>2020-07-24T09:57:57.000Z</time>
      </trkpt>
      <trkpt lat="48.19429" lon="-3.06706">
        <ele>188.296875</ele>
        <time>2020-07-24T09:58:00.000Z</time>
      </trkpt>
      <trkpt lat="48.19422" lon="-3.06738">
        <ele>184.296875</ele>
        <time>2020-07-24T09:58:08.000Z</time>
      </trkpt>
      <trkpt lat="48.19418" lon="-3.06752">
        <ele>182.796875</ele>
        <time>2020-07-24T09:58:11.000Z</time>
      </trkpt>
      <trkpt lat="48.19411" lon="-3.06766">
        <ele>181</ele>
        <time>2020-07-24T09:58:14.000Z</time>
      </trkpt>
      <trkpt lat="48.19404" lon="-3.06777">
        <ele>179.597656</ele>
        <time>2020-07-24T09:58:17.000Z</time>
      </trkpt>
      <trkpt lat="48.19393" lon="-3.06786">
        <ele>178.296875</ele>
        <time>2020-07-24T09:58:20.000Z</time>
      </trkpt>
      <trkpt lat="48.19374" lon="-3.06801">
        <ele>174.296875</ele>
        <time>2020-07-24T09:58:27.000Z</time>
      </trkpt>
      <trkpt lat="48.19347" lon="-3.0682">
        <ele>171.699219</ele>
        <time>2020-07-24T09:58:39.000Z</time>
      </trkpt>
      <trkpt lat="48.19328" lon="-3.06831">
        <ele>171.597656</ele>
        <time>2020-07-24T09:58:48.000Z</time>
      </trkpt>
      <trkpt lat="48.19318" lon="-3.06836">
        <ele>172</ele>
        <time>2020-07-24T09:58:53.000Z</time>
      </trkpt>
      <trkpt lat="48.19307" lon="-3.0684">
        <ele>172.097656</ele>
        <time>2020-07-24T09:58:58.000Z</time>
      </trkpt>
      <trkpt lat="48.19297" lon="-3.06843">
        <ele>171.296875</ele>
        <time>2020-07-24T09:59:02.000Z</time>
      </trkpt>
      <trkpt lat="48.19287" lon="-3.06847">
        <ele>170.097656</ele>
        <time>2020-07-24T09:59:07.000Z</time>
      </trkpt>
      <trkpt lat="48.19278" lon="-3.06849">
        <ele>169.796875</ele>
        <time>2020-07-24T09:59:11.000Z</time>
      </trkpt>
      <trkpt lat="48.19268" lon="-3.0685">
        <ele>170.097656</ele>
        <time>2020-07-24T09:59:16.000Z</time>
      </trkpt>
      <trkpt lat="48.1926" lon="-3.06855">
        <ele>169.898438</ele>
        <time>2020-07-24T09:59:22.000Z</time>
      </trkpt>
      <trkpt lat="48.19256" lon="-3.0687">
        <ele>169.699219</ele>
        <time>2020-07-24T09:59:27.000Z</time>
      </trkpt>
      <trkpt lat="48.19245" lon="-3.06914">
        <ele>168.796875</ele>
        <time>2020-07-24T09:59:37.000Z</time>
      </trkpt>
      <trkpt lat="48.19242" lon="-3.0693">
        <ele>168.597656</ele>
        <time>2020-07-24T09:59:40.000Z</time>
      </trkpt>
      <trkpt lat="48.19225" lon="-3.0702">
        <ele>167.398438</ele>
        <time>2020-07-24T09:59:53.000Z</time>
      </trkpt>
      <trkpt lat="48.19223" lon="-3.07036">
        <ele>167.296875</ele>
        <time>2020-07-24T09:59:55.000Z</time>
      </trkpt>
      <trkpt lat="48.19222" lon="-3.07053">
        <ele>167.097656</ele>
        <time>2020-07-24T09:59:57.000Z</time>
      </trkpt>
      <trkpt lat="48.19222" lon="-3.0707">
        <ele>166.796875</ele>
        <time>2020-07-24T09:59:59.000Z</time>
      </trkpt>
      <trkpt lat="48.19227" lon="-3.07155">
        <ele>164.699219</ele>
        <time>2020-07-24T10:00:09.000Z</time>
      </trkpt>
      <trkpt lat="48.1923" lon="-3.07172">
        <ele>164.296875</ele>
        <time>2020-07-24T10:00:11.000Z</time>
      </trkpt>
      <trkpt lat="48.19231" lon="-3.07192">
        <ele>163.796875</ele>
        <time>2020-07-24T10:00:13.000Z</time>
      </trkpt>
      <trkpt lat="48.19243" lon="-3.07351">
        <ele>159.199219</ele>
        <time>2020-07-24T10:00:27.000Z</time>
      </trkpt>
      <trkpt lat="48.19243" lon="-3.07375">
        <ele>158.597656</ele>
        <time>2020-07-24T10:00:29.000Z</time>
      </trkpt>
      <trkpt lat="48.19242" lon="-3.074">
        <ele>158.296875</ele>
        <time>2020-07-24T10:00:31.000Z</time>
      </trkpt>
      <trkpt lat="48.19242" lon="-3.07423">
        <ele>158.097656</ele>
        <time>2020-07-24T10:00:33.000Z</time>
      </trkpt>
      <trkpt lat="48.19244" lon="-3.07444">
        <ele>158.5</ele>
        <time>2020-07-24T10:00:35.000Z</time>
      </trkpt>
      <trkpt lat="48.19247" lon="-3.07463">
        <ele>158.898438</ele>
        <time>2020-07-24T10:00:37.000Z</time>
      </trkpt>
      <trkpt lat="48.19257" lon="-3.0753">
        <ele>160.097656</ele>
        <time>2020-07-24T10:00:45.000Z</time>
      </trkpt>
      <trkpt lat="48.1926" lon="-3.07543">
        <ele>160.699219</ele>
        <time>2020-07-24T10:00:47.000Z</time>
      </trkpt>
      <trkpt lat="48.1927" lon="-3.07578">
        <ele>162.296875</ele>
        <time>2020-07-24T10:00:53.000Z</time>
      </trkpt>
      <trkpt lat="48.19273" lon="-3.07595">
        <ele>163.5</ele>
        <time>2020-07-24T10:00:56.000Z</time>
      </trkpt>
      <trkpt lat="48.19306" lon="-3.07766">
        <ele>169.097656</ele>
        <time>2020-07-24T10:01:35.000Z</time>
      </trkpt>
      <trkpt lat="48.19327" lon="-3.07868">
        <ele>173.296875</ele>
        <time>2020-07-24T10:01:58.000Z</time>
      </trkpt>
      <trkpt lat="48.19338" lon="-3.07922">
        <ele>177.097656</ele>
        <time>2020-07-24T10:02:10.000Z</time>
      </trkpt>
      <trkpt lat="48.19342" lon="-3.07936">
        <ele>178.398438</ele>
        <time>2020-07-24T10:02:14.000Z</time>
      </trkpt>
      <trkpt lat="48.19362" lon="-3.08005">
        <ele>182.796875</ele>
        <time>2020-07-24T10:02:31.000Z</time>
      </trkpt>
      <trkpt lat="48.19372" lon="-3.08051">
        <ele>179.796875</ele>
        <time>2020-07-24T10:02:42.000Z</time>
      </trkpt>
      <trkpt lat="48.19375" lon="-3.08065">
        <ele>179.097656</ele>
        <time>2020-07-24T10:02:45.000Z</time>
      </trkpt>
      <trkpt lat="48.19424" lon="-3.0832">
        <ele>182.5</ele>
        <time>2020-07-24T10:03:30.000Z</time>
      </trkpt>
      <trkpt lat="48.19429" lon="-3.08337">
        <ele>182.796875</ele>
        <time>2020-07-24T10:03:33.000Z</time>
      </trkpt>
      <trkpt lat="48.19443" lon="-3.08383">
        <ele>184.097656</ele>
        <time>2020-07-24T10:03:42.000Z</time>
      </trkpt>
      <trkpt lat="48.19446" lon="-3.08399">
        <ele>184.796875</ele>
        <time>2020-07-24T10:03:45.000Z</time>
      </trkpt>
      <trkpt lat="48.19448" lon="-3.08414">
        <ele>185.398438</ele>
        <time>2020-07-24T10:03:48.000Z</time>
      </trkpt>
      <trkpt lat="48.19449" lon="-3.0843">
        <ele>186.097656</ele>
        <time>2020-07-24T10:03:51.000Z</time>
      </trkpt>
      <trkpt lat="48.19449" lon="-3.08447">
        <ele>187</ele>
        <time>2020-07-24T10:03:54.000Z</time>
      </trkpt>
      <trkpt lat="48.19448" lon="-3.08463">
        <ele>187.796875</ele>
        <time>2020-07-24T10:03:57.000Z</time>
      </trkpt>
      <trkpt lat="48.19446" lon="-3.08479">
        <ele>188.597656</ele>
        <time>2020-07-24T10:04:00.000Z</time>
      </trkpt>
      <trkpt lat="48.19441" lon="-3.08511">
        <ele>189.296875</ele>
        <time>2020-07-24T10:04:06.000Z</time>
      </trkpt>
      <trkpt lat="48.19377" lon="-3.08866">
        <ele>201.5</ele>
        <time>2020-07-24T10:05:28.000Z</time>
      </trkpt>
      <trkpt lat="48.19373" lon="-3.08901">
        <ele>203.097656</ele>
        <time>2020-07-24T10:05:36.000Z</time>
      </trkpt>
      <trkpt lat="48.19373" lon="-3.08914">
        <ele>204</ele>
        <time>2020-07-24T10:05:39.000Z</time>
      </trkpt>
      <trkpt lat="48.19374" lon="-3.08932">
        <ele>204.898438</ele>
        <time>2020-07-24T10:05:43.000Z</time>
      </trkpt>
      <trkpt lat="48.19375" lon="-3.08949">
        <ele>205.5</ele>
        <time>2020-07-24T10:05:47.000Z</time>
      </trkpt>
      <trkpt lat="48.19376" lon="-3.08965">
        <ele>206.296875</ele>
        <time>2020-07-24T10:05:51.000Z</time>
      </trkpt>
      <trkpt lat="48.1943" lon="-3.0937">
        <ele>205.699219</ele>
        <time>2020-07-24T10:07:09.000Z</time>
      </trkpt>
      <trkpt lat="48.19433" lon="-3.09385">
        <ele>205.597656</ele>
        <time>2020-07-24T10:07:12.000Z</time>
      </trkpt>
      <trkpt lat="48.19435" lon="-3.09401">
        <ele>205.597656</ele>
        <time>2020-07-24T10:07:15.000Z</time>
      </trkpt>
      <trkpt lat="48.19459" lon="-3.09615">
        <ele>213.296875</ele>
        <time>2020-07-24T10:07:57.000Z</time>
      </trkpt>
      <trkpt lat="48.19466" lon="-3.09673">
        <ele>216</ele>
        <time>2020-07-24T10:08:09.000Z</time>
      </trkpt>
      <trkpt lat="48.19558" lon="-3.10397">
        <ele>181.296875</ele>
        <time>2020-07-24T10:09:14.000Z</time>
      </trkpt>
      <trkpt lat="48.19565" lon="-3.10451">
        <ele>178.796875</ele>
        <time>2020-07-24T10:09:18.000Z</time>
      </trkpt>
      <trkpt lat="48.1961" lon="-3.10908">
        <ele>186</ele>
        <time>2020-07-24T10:10:06.000Z</time>
      </trkpt>
      <trkpt lat="48.19642" lon="-3.1119">
        <ele>196.699219</ele>
        <time>2020-07-24T10:11:05.000Z</time>
      </trkpt>
      <trkpt lat="48.19665" lon="-3.11377">
        <ele>195.597656</ele>
        <time>2020-07-24T10:11:38.000Z</time>
      </trkpt>
      <trkpt lat="48.19669" lon="-3.11392">
        <ele>195.398438</ele>
        <time>2020-07-24T10:11:40.000Z</time>
      </trkpt>
      <trkpt lat="48.19675" lon="-3.11406">
        <ele>194.699219</ele>
        <time>2020-07-24T10:11:42.000Z</time>
      </trkpt>
      <trkpt lat="48.19683" lon="-3.11422">
        <ele>192.296875</ele>
        <time>2020-07-24T10:11:44.000Z</time>
      </trkpt>
      <trkpt lat="48.19693" lon="-3.11437">
        <ele>189.597656</ele>
        <time>2020-07-24T10:11:46.000Z</time>
      </trkpt>
      <trkpt lat="48.19946" lon="-3.11848">
        <ele>151.398438</ele>
        <time>2020-07-24T10:12:26.000Z</time>
      </trkpt>
      <trkpt lat="48.19952" lon="-3.11859">
        <ele>150.699219</ele>
        <time>2020-07-24T10:12:31.000Z</time>
      </trkpt>
      <trkpt lat="48.19954" lon="-3.11874">
        <ele>150.5</ele>
        <time>2020-07-24T10:12:35.000Z</time>
      </trkpt>
      <trkpt lat="48.19952" lon="-3.11892">
        <ele>150.898438</ele>
        <time>2020-07-24T10:12:39.000Z</time>
      </trkpt>
      <trkpt lat="48.19951" lon="-3.11909">
        <ele>151.5</ele>
        <time>2020-07-24T10:12:42.000Z</time>
      </trkpt>
      <trkpt lat="48.19953" lon="-3.11928">
        <ele>152.097656</ele>
        <time>2020-07-24T10:12:45.000Z</time>
      </trkpt>
      <trkpt lat="48.19972" lon="-3.1211">
        <ele>157</ele>
        <time>2020-07-24T10:13:27.000Z</time>
      </trkpt>
      <trkpt lat="48.19978" lon="-3.12168">
        <ele>158.199219</ele>
        <time>2020-07-24T10:13:44.000Z</time>
      </trkpt>
      <trkpt lat="48.19986" lon="-3.1223">
        <ele>161.898438</ele>
        <time>2020-07-24T10:14:00.000Z</time>
      </trkpt>
      <trkpt lat="48.19987" lon="-3.12246">
        <ele>162.199219</ele>
        <time>2020-07-24T10:14:04.000Z</time>
      </trkpt>
      <trkpt lat="48.1999" lon="-3.1226">
        <ele>162.597656</ele>
        <time>2020-07-24T10:14:08.000Z</time>
      </trkpt>
      <trkpt lat="48.19991" lon="-3.12276">
        <ele>162.898438</ele>
        <time>2020-07-24T10:14:12.000Z</time>
      </trkpt>
      <trkpt lat="48.19991" lon="-3.12292">
        <ele>163.296875</ele>
        <time>2020-07-24T10:14:16.000Z</time>
      </trkpt>
      <trkpt lat="48.1999" lon="-3.12309">
        <ele>163.5</ele>
        <time>2020-07-24T10:14:20.000Z</time>
      </trkpt>
      <trkpt lat="48.19987" lon="-3.12325">
        <ele>163.296875</ele>
        <time>2020-07-24T10:14:24.000Z</time>
      </trkpt>
      <trkpt lat="48.19982" lon="-3.1234">
        <ele>163.898438</ele>
        <time>2020-07-24T10:14:28.000Z</time>
      </trkpt>
      <trkpt lat="48.19976" lon="-3.12354">
        <ele>164.796875</ele>
        <time>2020-07-24T10:14:32.000Z</time>
      </trkpt>
      <trkpt lat="48.19963" lon="-3.12383">
        <ele>166.796875</ele>
        <time>2020-07-24T10:14:40.000Z</time>
      </trkpt>
      <trkpt lat="48.19926" lon="-3.12465">
        <ele>171.597656</ele>
        <time>2020-07-24T10:15:04.000Z</time>
      </trkpt>
      <trkpt lat="48.19922" lon="-3.12478">
        <ele>171.796875</ele>
        <time>2020-07-24T10:15:08.000Z</time>
      </trkpt>
      <trkpt lat="48.1992" lon="-3.12492">
        <ele>172.542969</ele>
        <time>2020-07-24T10:15:12.000Z</time>
      </trkpt>
      <trkpt lat="48.19919" lon="-3.12505">
        <ele>175.296875</ele>
        <time>2020-07-24T10:15:30.000Z</time>
      </trkpt>
      <trkpt lat="48.19913" lon="-3.12517">
        <ele>178.5</ele>
        <time>2020-07-24T10:20:50.000Z</time>
      </trkpt>
      <trkpt lat="48.19909" lon="-3.12529">
        <ele>178.597656</ele>
        <time>2020-07-24T10:22:56.000Z</time>
      </trkpt>
      <trkpt lat="48.19897" lon="-3.12567">
        <ele>182.199219</ele>
        <time>2020-07-24T10:23:12.000Z</time>
      </trkpt>
      <trkpt lat="48.19891" lon="-3.1258">
        <ele>183.296875</ele>
        <time>2020-07-24T10:23:17.000Z</time>
      </trkpt>
      <trkpt lat="48.19883" lon="-3.12592">
        <ele>184</ele>
        <time>2020-07-24T10:23:22.000Z</time>
      </trkpt>
      <trkpt lat="48.19868" lon="-3.12611">
        <ele>184.699219</ele>
        <time>2020-07-24T10:23:30.000Z</time>
      </trkpt>
      <trkpt lat="48.1986" lon="-3.12618">
        <ele>185.699219</ele>
        <time>2020-07-24T10:23:33.000Z</time>
      </trkpt>
      <trkpt lat="48.19851" lon="-3.12626">
        <ele>186.796875</ele>
        <time>2020-07-24T10:23:37.000Z</time>
      </trkpt>
      <trkpt lat="48.1984" lon="-3.12633">
        <ele>187.5</ele>
        <time>2020-07-24T10:23:41.000Z</time>
      </trkpt>
      <trkpt lat="48.19831" lon="-3.12638">
        <ele>187.796875</ele>
        <time>2020-07-24T10:23:44.000Z</time>
      </trkpt>
      <trkpt lat="48.19811" lon="-3.12646">
        <ele>188.398438</ele>
        <time>2020-07-24T10:23:52.000Z</time>
      </trkpt>
      <trkpt lat="48.198" lon="-3.12648">
        <ele>187.796875</ele>
        <time>2020-07-24T10:23:56.000Z</time>
      </trkpt>
      <trkpt lat="48.19758" lon="-3.12651">
        <ele>182.898438</ele>
        <time>2020-07-24T10:24:09.000Z</time>
      </trkpt>
      <trkpt lat="48.19747" lon="-3.1265">
        <ele>181.296875</ele>
        <time>2020-07-24T10:24:12.000Z</time>
      </trkpt>
      <trkpt lat="48.19062" lon="-3.12601">
        <ele>191.796875</ele>
        <time>2020-07-24T10:27:15.000Z</time>
      </trkpt>
      <trkpt lat="48.18911" lon="-3.12588">
        <ele>203.597656</ele>
        <time>2020-07-24T10:28:08.000Z</time>
      </trkpt>
      <trkpt lat="48.18773" lon="-3.12579">
        <ele>220.398438</ele>
        <time>2020-07-24T10:29:04.000Z</time>
      </trkpt>
      <trkpt lat="48.18753" lon="-3.12581">
        <ele>222</ele>
        <time>2020-07-24T10:29:12.000Z</time>
      </trkpt>
      <trkpt lat="48.18744" lon="-3.12585">
        <ele>222.699219</ele>
        <time>2020-07-24T10:29:16.000Z</time>
      </trkpt>
      <trkpt lat="48.18735" lon="-3.12591">
        <ele>223.898438</ele>
        <time>2020-07-24T10:29:20.000Z</time>
      </trkpt>
      <trkpt lat="48.18727" lon="-3.12597">
        <ele>224.898438</ele>
        <time>2020-07-24T10:29:24.000Z</time>
      </trkpt>
      <trkpt lat="48.18718" lon="-3.12606">
        <ele>225.597656</ele>
        <time>2020-07-24T10:29:29.000Z</time>
      </trkpt>
      <trkpt lat="48.18692" lon="-3.12633">
        <ele>230.597656</ele>
        <time>2020-07-24T10:29:44.000Z</time>
      </trkpt>
      <trkpt lat="48.18683" lon="-3.1264">
        <ele>231.898438</ele>
        <time>2020-07-24T10:29:49.000Z</time>
      </trkpt>
      <trkpt lat="48.18673" lon="-3.12647">
        <ele>232.296875</ele>
        <time>2020-07-24T10:29:54.000Z</time>
      </trkpt>
      <trkpt lat="48.18663" lon="-3.1265">
        <ele>233</ele>
        <time>2020-07-24T10:29:59.000Z</time>
      </trkpt>
      <trkpt lat="48.18652" lon="-3.12652">
        <ele>232.898438</ele>
        <time>2020-07-24T10:30:04.000Z</time>
      </trkpt>
      <trkpt lat="48.18631" lon="-3.12654">
        <ele>229.796875</ele>
        <time>2020-07-24T10:30:13.000Z</time>
      </trkpt>
      <trkpt lat="48.18622" lon="-3.12652">
        <ele>228.5</ele>
        <time>2020-07-24T10:30:17.000Z</time>
      </trkpt>
      <trkpt lat="48.18613" lon="-3.1265">
        <ele>228.898438</ele>
        <time>2020-07-24T10:30:21.000Z</time>
      </trkpt>
      <trkpt lat="48.18604" lon="-3.12645">
        <ele>229.296875</ele>
        <time>2020-07-24T10:30:25.000Z</time>
      </trkpt>
      <trkpt lat="48.18596" lon="-3.1264">
        <ele>228.5</ele>
        <time>2020-07-24T10:30:29.000Z</time>
      </trkpt>
      <trkpt lat="48.18586" lon="-3.12632">
        <ele>226.699219</ele>
        <time>2020-07-24T10:30:33.000Z</time>
      </trkpt>
      <trkpt lat="48.18578" lon="-3.12625">
        <ele>224.5</ele>
        <time>2020-07-24T10:30:36.000Z</time>
      </trkpt>
      <trkpt lat="48.1857" lon="-3.12616">
        <ele>222.296875</ele>
        <time>2020-07-24T10:30:39.000Z</time>
      </trkpt>
      <trkpt lat="48.18563" lon="-3.12607">
        <ele>220</ele>
        <time>2020-07-24T10:30:42.000Z</time>
      </trkpt>
      <trkpt lat="48.1848" lon="-3.12508">
        <ele>224.296875</ele>
        <time>2020-07-24T10:31:07.000Z</time>
      </trkpt>
      <trkpt lat="48.18471" lon="-3.12502">
        <ele>225.398438</ele>
        <time>2020-07-24T10:31:09.000Z</time>
      </trkpt>
      <trkpt lat="48.18462" lon="-3.12497">
        <ele>226.796875</ele>
        <time>2020-07-24T10:31:11.000Z</time>
      </trkpt>
      <trkpt lat="48.18443" lon="-3.12491">
        <ele>229.199219</ele>
        <time>2020-07-24T10:31:15.000Z</time>
      </trkpt>
      <trkpt lat="48.18433" lon="-3.1249">
        <ele>229.5</ele>
        <time>2020-07-24T10:31:17.000Z</time>
      </trkpt>
      <trkpt lat="48.18214" lon="-3.12478">
        <ele>224.898438</ele>
        <time>2020-07-24T10:32:02.000Z</time>
      </trkpt>
      <trkpt lat="48.18205" lon="-3.12473">
        <ele>224.597656</ele>
        <time>2020-07-24T10:32:04.000Z</time>
      </trkpt>
      <trkpt lat="48.18196" lon="-3.12468">
        <ele>224.5</ele>
        <time>2020-07-24T10:32:06.000Z</time>
      </trkpt>
      <trkpt lat="48.18188" lon="-3.12462">
        <ele>224.898438</ele>
        <time>2020-07-24T10:32:08.000Z</time>
      </trkpt>
      <trkpt lat="48.1818" lon="-3.12454">
        <ele>225.296875</ele>
        <time>2020-07-24T10:32:10.000Z</time>
      </trkpt>
      <trkpt lat="48.18172" lon="-3.12446">
        <ele>225.898438</ele>
        <time>2020-07-24T10:32:12.000Z</time>
      </trkpt>
      <trkpt lat="48.18158" lon="-3.12428">
        <ele>226.5</ele>
        <time>2020-07-24T10:32:16.000Z</time>
      </trkpt>
      <trkpt lat="48.18151" lon="-3.12419">
        <ele>227</ele>
        <time>2020-07-24T10:32:18.000Z</time>
      </trkpt>
      <trkpt lat="48.18143" lon="-3.12404">
        <ele>227.796875</ele>
        <time>2020-07-24T10:32:21.000Z</time>
      </trkpt>
      <trkpt lat="48.18123" lon="-3.12364">
        <ele>226</ele>
        <time>2020-07-24T10:32:33.000Z</time>
      </trkpt>
      <trkpt lat="48.18113" lon="-3.12338">
        <ele>223.398438</ele>
        <time>2020-07-24T10:32:40.000Z</time>
      </trkpt>
      <trkpt lat="48.18097" lon="-3.12299">
        <ele>222.796875</ele>
        <time>2020-07-24T10:32:49.000Z</time>
      </trkpt>
      <trkpt lat="48.18088" lon="-3.12283">
        <ele>222.199219</ele>
        <time>2020-07-24T10:32:52.000Z</time>
      </trkpt>
      <trkpt lat="48.1808" lon="-3.12273">
        <ele>221.398438</ele>
        <time>2020-07-24T10:32:54.000Z</time>
      </trkpt>
      <trkpt lat="48.18071" lon="-3.12264">
        <ele>220.296875</ele>
        <time>2020-07-24T10:32:56.000Z</time>
      </trkpt>
      <trkpt lat="48.18059" lon="-3.12257">
        <ele>220</ele>
        <time>2020-07-24T10:32:58.000Z</time>
      </trkpt>
      <trkpt lat="48.18045" lon="-3.12253">
        <ele>219.898438</ele>
        <time>2020-07-24T10:33:00.000Z</time>
      </trkpt>
      <trkpt lat="48.18031" lon="-3.12252">
        <ele>220.5</ele>
        <time>2020-07-24T10:33:02.000Z</time>
      </trkpt>
      <trkpt lat="48.18017" lon="-3.12254">
        <ele>222</ele>
        <time>2020-07-24T10:33:04.000Z</time>
      </trkpt>
      <trkpt lat="48.18004" lon="-3.12258">
        <ele>223.296875</ele>
        <time>2020-07-24T10:33:06.000Z</time>
      </trkpt>
      <trkpt lat="48.17993" lon="-3.12263">
        <ele>224.5</ele>
        <time>2020-07-24T10:33:08.000Z</time>
      </trkpt>
      <trkpt lat="48.1793" lon="-3.12295">
        <ele>230.398438</ele>
        <time>2020-07-24T10:33:22.000Z</time>
      </trkpt>
      <trkpt lat="48.17918" lon="-3.12299">
        <ele>230.898438</ele>
        <time>2020-07-24T10:33:25.000Z</time>
      </trkpt>
      <trkpt lat="48.17905" lon="-3.12302">
        <ele>230.898438</ele>
        <time>2020-07-24T10:33:28.000Z</time>
      </trkpt>
      <trkpt lat="48.17893" lon="-3.12303">
        <ele>230.398438</ele>
        <time>2020-07-24T10:33:31.000Z</time>
      </trkpt>
      <trkpt lat="48.17881" lon="-3.12303">
        <ele>229.296875</ele>
        <time>2020-07-24T10:33:34.000Z</time>
      </trkpt>
      <trkpt lat="48.1787" lon="-3.12301">
        <ele>227.097656</ele>
        <time>2020-07-24T10:33:37.000Z</time>
      </trkpt>
      <trkpt lat="48.17858" lon="-3.12299">
        <ele>224.796875</ele>
        <time>2020-07-24T10:33:40.000Z</time>
      </trkpt>
      <trkpt lat="48.17846" lon="-3.12295">
        <ele>222.296875</ele>
        <time>2020-07-24T10:33:43.000Z</time>
      </trkpt>
      <trkpt lat="48.17528" lon="-3.12183">
        <ele>203.796875</ele>
        <time>2020-07-24T10:34:36.000Z</time>
      </trkpt>
      <trkpt lat="48.17515" lon="-3.12176">
        <ele>203.296875</ele>
        <time>2020-07-24T10:34:38.000Z</time>
      </trkpt>
      <trkpt lat="48.17502" lon="-3.12168">
        <ele>203.199219</ele>
        <time>2020-07-24T10:34:40.000Z</time>
      </trkpt>
      <trkpt lat="48.17491" lon="-3.12157">
        <ele>203.398438</ele>
        <time>2020-07-24T10:34:42.000Z</time>
      </trkpt>
      <trkpt lat="48.17469" lon="-3.12134">
        <ele>204.398438</ele>
        <time>2020-07-24T10:34:46.000Z</time>
      </trkpt>
      <trkpt lat="48.1746" lon="-3.12121">
        <ele>205</ele>
        <time>2020-07-24T10:34:48.000Z</time>
      </trkpt>
      <trkpt lat="48.17451" lon="-3.12108">
        <ele>204.898438</ele>
        <time>2020-07-24T10:34:50.000Z</time>
      </trkpt>
      <trkpt lat="48.17422" lon="-3.1206">
        <ele>205.199219</ele>
        <time>2020-07-24T10:34:58.000Z</time>
      </trkpt>
      <trkpt lat="48.17413" lon="-3.12051">
        <ele>204.898438</ele>
        <time>2020-07-24T10:35:00.000Z</time>
      </trkpt>
      <trkpt lat="48.17403" lon="-3.12042">
        <ele>205.199219</ele>
        <time>2020-07-24T10:35:02.000Z</time>
      </trkpt>
      <trkpt lat="48.17392" lon="-3.12036">
        <ele>205.398438</ele>
        <time>2020-07-24T10:35:04.000Z</time>
      </trkpt>
      <trkpt lat="48.17379" lon="-3.12033">
        <ele>205.898438</ele>
        <time>2020-07-24T10:35:06.000Z</time>
      </trkpt>
      <trkpt lat="48.17368" lon="-3.12034">
        <ele>206.398438</ele>
        <time>2020-07-24T10:35:08.000Z</time>
      </trkpt>
      <trkpt lat="48.17357" lon="-3.12039">
        <ele>206.5</ele>
        <time>2020-07-24T10:35:10.000Z</time>
      </trkpt>
      <trkpt lat="48.17347" lon="-3.12045">
        <ele>206.597656</ele>
        <time>2020-07-24T10:35:12.000Z</time>
      </trkpt>
      <trkpt lat="48.17265" lon="-3.12099">
        <ele>210.597656</ele>
        <time>2020-07-24T10:35:30.000Z</time>
      </trkpt>
      <trkpt lat="48.17257" lon="-3.12105">
        <ele>211.5</ele>
        <time>2020-07-24T10:35:32.000Z</time>
      </trkpt>
      <trkpt lat="48.17246" lon="-3.12116">
        <ele>212.398438</ele>
        <time>2020-07-24T10:35:35.000Z</time>
      </trkpt>
      <trkpt lat="48.17238" lon="-3.12128">
        <ele>213.296875</ele>
        <time>2020-07-24T10:35:38.000Z</time>
      </trkpt>
      <trkpt lat="48.17102" lon="-3.12329">
        <ele>218.398438</ele>
        <time>2020-07-24T10:36:35.000Z</time>
      </trkpt>
      <trkpt lat="48.17092" lon="-3.1234">
        <ele>218.5</ele>
        <time>2020-07-24T10:36:38.000Z</time>
      </trkpt>
      <trkpt lat="48.17082" lon="-3.12348">
        <ele>218.699219</ele>
        <time>2020-07-24T10:36:41.000Z</time>
      </trkpt>
      <trkpt lat="48.1707" lon="-3.12353">
        <ele>218.898438</ele>
        <time>2020-07-24T10:36:44.000Z</time>
      </trkpt>
      <trkpt lat="48.17032" lon="-3.12365">
        <ele>218.597656</ele>
        <time>2020-07-24T10:36:53.000Z</time>
      </trkpt>
      <trkpt lat="48.16931" lon="-3.12387">
        <ele>214.097656</ele>
        <time>2020-07-24T10:37:13.000Z</time>
      </trkpt>
      <trkpt lat="48.1692" lon="-3.12388">
        <ele>213.796875</ele>
        <time>2020-07-24T10:37:15.000Z</time>
      </trkpt>
      <trkpt lat="48.16866" lon="-3.1239">
        <ele>212.796875</ele>
        <time>2020-07-24T10:37:25.000Z</time>
      </trkpt>
      <trkpt lat="48.16855" lon="-3.12395">
        <ele>213.398438</ele>
        <time>2020-07-24T10:37:27.000Z</time>
      </trkpt>
      <trkpt lat="48.16844" lon="-3.12401">
        <ele>213.898438</ele>
        <time>2020-07-24T10:37:29.000Z</time>
      </trkpt>
      <trkpt lat="48.16835" lon="-3.12407">
        <ele>214.296875</ele>
        <time>2020-07-24T10:37:31.000Z</time>
      </trkpt>
      <trkpt lat="48.16817" lon="-3.12421">
        <ele>215</ele>
        <time>2020-07-24T10:37:35.000Z</time>
      </trkpt>
      <trkpt lat="48.16737" lon="-3.12487">
        <ele>218</ele>
        <time>2020-07-24T10:37:57.000Z</time>
      </trkpt>
      <trkpt lat="48.16728" lon="-3.12496">
        <ele>218.597656</ele>
        <time>2020-07-24T10:38:00.000Z</time>
      </trkpt>
      <trkpt lat="48.1672" lon="-3.12507">
        <ele>219</ele>
        <time>2020-07-24T10:38:03.000Z</time>
      </trkpt>
      <trkpt lat="48.16712" lon="-3.12517">
        <ele>219.398438</ele>
        <time>2020-07-24T10:38:06.000Z</time>
      </trkpt>
      <trkpt lat="48.16689" lon="-3.12555">
        <ele>219.898438</ele>
        <time>2020-07-24T10:38:15.000Z</time>
      </trkpt>
      <trkpt lat="48.16667" lon="-3.12589">
        <ele>219.699219</ele>
        <time>2020-07-24T10:38:22.000Z</time>
      </trkpt>
      <trkpt lat="48.1666" lon="-3.12598">
        <ele>219.199219</ele>
        <time>2020-07-24T10:38:24.000Z</time>
      </trkpt>
      <trkpt lat="48.16448" lon="-3.12693">
        <ele>226.425781</ele>
        <time>2020-07-24T10:40:59.000Z</time>
      </trkpt>
      <trkpt lat="48.16444" lon="-3.12705">
        <ele>222</ele>
        <time>2020-07-24T11:28:54.000Z</time>
      </trkpt>
      <trkpt lat="48.16454" lon="-3.12804">
        <ele>240.46875</ele>
        <time>2020-07-24T11:30:50.000Z</time>
      </trkpt>
      <trkpt lat="48.16445" lon="-3.12804">
        <ele>235.097656</ele>
        <time>2020-07-24T11:31:19.000Z</time>
      </trkpt>
      <trkpt lat="48.16453" lon="-3.1281">
        <ele>236.398438</ele>
        <time>2020-07-24T11:45:37.000Z</time>
      </trkpt>
      <trkpt lat="48.16453" lon="-3.12824">
        <ele>234.421875</ele>
        <time>2020-07-24T11:45:50.000Z</time>
      </trkpt>
      <trkpt lat="48.16444" lon="-3.12823">
        <ele>229.5</ele>
        <time>2020-07-24T11:46:55.000Z</time>
      </trkpt>
      <trkpt lat="48.1643" lon="-3.12819">
        <ele>229.296875</ele>
        <time>2020-07-24T11:47:45.000Z</time>
      </trkpt>
      <trkpt lat="48.16426" lon="-3.12834">
        <ele>229.898438</ele>
        <time>2020-07-24T11:47:52.000Z</time>
      </trkpt>
      <trkpt lat="48.16421" lon="-3.12865">
        <ele>230.398438</ele>
        <time>2020-07-24T11:48:03.000Z</time>
      </trkpt>
      <trkpt lat="48.16416" lon="-3.12879">
        <ele>230.199219</ele>
        <time>2020-07-24T11:48:07.000Z</time>
      </trkpt>
      <trkpt lat="48.1641" lon="-3.1289">
        <ele>229.398438</ele>
        <time>2020-07-24T11:48:10.000Z</time>
      </trkpt>
      <trkpt lat="48.16362" lon="-3.12982">
        <ele>222.5</ele>
        <time>2020-07-24T11:48:25.000Z</time>
      </trkpt>
      <trkpt lat="48.16361" lon="-3.13001">
        <ele>220.898438</ele>
        <time>2020-07-24T11:48:28.000Z</time>
      </trkpt>
      <trkpt lat="48.16367" lon="-3.13012">
        <ele>219.898438</ele>
        <time>2020-07-24T11:48:30.000Z</time>
      </trkpt>
      <trkpt lat="48.16377" lon="-3.13021">
        <ele>219</ele>
        <time>2020-07-24T11:48:32.000Z</time>
      </trkpt>
      <trkpt lat="48.16451" lon="-3.13086">
        <ele>218.398438</ele>
        <time>2020-07-24T11:48:46.000Z</time>
      </trkpt>
      <trkpt lat="48.16496" lon="-3.1312">
        <ele>219.199219</ele>
        <time>2020-07-24T11:48:56.000Z</time>
      </trkpt>
      <trkpt lat="48.16514" lon="-3.13131">
        <ele>219.5</ele>
        <time>2020-07-24T11:49:00.000Z</time>
      </trkpt>
      <trkpt lat="48.16576" lon="-3.13158">
        <ele>220.898438</ele>
        <time>2020-07-24T11:49:14.000Z</time>
      </trkpt>
      <trkpt lat="48.16719" lon="-3.13223">
        <ele>223.699219</ele>
        <time>2020-07-24T11:49:53.000Z</time>
      </trkpt>
      <trkpt lat="48.1675" lon="-3.13244">
        <ele>223.398438</ele>
        <time>2020-07-24T11:50:02.000Z</time>
      </trkpt>
      <trkpt lat="48.1679" lon="-3.13277">
        <ele>221.699219</ele>
        <time>2020-07-24T11:50:12.000Z</time>
      </trkpt>
      <trkpt lat="48.168" lon="-3.13286">
        <ele>220.898438</ele>
        <time>2020-07-24T11:50:14.000Z</time>
      </trkpt>
      <trkpt lat="48.16831" lon="-3.1332">
        <ele>218.5</ele>
        <time>2020-07-24T11:50:20.000Z</time>
      </trkpt>
      <trkpt lat="48.16865" lon="-3.13362">
        <ele>215.699219</ele>
        <time>2020-07-24T11:50:26.000Z</time>
      </trkpt>
      <trkpt lat="48.16876" lon="-3.13379">
        <ele>214.796875</ele>
        <time>2020-07-24T11:50:28.000Z</time>
      </trkpt>
      <trkpt lat="48.16885" lon="-3.13397">
        <ele>214.097656</ele>
        <time>2020-07-24T11:50:30.000Z</time>
      </trkpt>
      <trkpt lat="48.1691" lon="-3.13448">
        <ele>211.199219</ele>
        <time>2020-07-24T11:50:36.000Z</time>
      </trkpt>
      <trkpt lat="48.16916" lon="-3.13465">
        <ele>210.699219</ele>
        <time>2020-07-24T11:50:38.000Z</time>
      </trkpt>
      <trkpt lat="48.16921" lon="-3.13482">
        <ele>210.296875</ele>
        <time>2020-07-24T11:50:40.000Z</time>
      </trkpt>
      <trkpt lat="48.16924" lon="-3.13498">
        <ele>210.296875</ele>
        <time>2020-07-24T11:50:42.000Z</time>
      </trkpt>
      <trkpt lat="48.16929" lon="-3.13528">
        <ele>211</ele>
        <time>2020-07-24T11:50:46.000Z</time>
      </trkpt>
      <trkpt lat="48.16944" lon="-3.13666">
        <ele>214.796875</ele>
        <time>2020-07-24T11:51:09.000Z</time>
      </trkpt>
      <trkpt lat="48.16947" lon="-3.13681">
        <ele>214.699219</ele>
        <time>2020-07-24T11:51:12.000Z</time>
      </trkpt>
      <trkpt lat="48.16954" lon="-3.1371">
        <ele>214.398438</ele>
        <time>2020-07-24T11:51:18.000Z</time>
      </trkpt>
      <trkpt lat="48.16958" lon="-3.13724">
        <ele>213.898438</ele>
        <time>2020-07-24T11:51:21.000Z</time>
      </trkpt>
      <trkpt lat="48.16969" lon="-3.13753">
        <ele>213.097656</ele>
        <time>2020-07-24T11:51:27.000Z</time>
      </trkpt>
      <trkpt lat="48.16991" lon="-3.13802">
        <ele>214</ele>
        <time>2020-07-24T11:51:36.000Z</time>
      </trkpt>
      <trkpt lat="48.17013" lon="-3.13853">
        <ele>215</ele>
        <time>2020-07-24T11:51:45.000Z</time>
      </trkpt>
      <trkpt lat="48.17019" lon="-3.13869">
        <ele>215.398438</ele>
        <time>2020-07-24T11:51:48.000Z</time>
      </trkpt>
      <trkpt lat="48.17058" lon="-3.13967">
        <ele>219.898438</ele>
        <time>2020-07-24T11:52:09.000Z</time>
      </trkpt>
      <trkpt lat="48.17078" lon="-3.14041">
        <ele>223.796875</ele>
        <time>2020-07-24T11:52:24.000Z</time>
      </trkpt>
      <trkpt lat="48.17148" lon="-3.14329">
        <ele>229.398438</ele>
        <time>2020-07-24T11:53:29.000Z</time>
      </trkpt>
      <trkpt lat="48.17167" lon="-3.14447">
        <ele>232.097656</ele>
        <time>2020-07-24T11:53:56.000Z</time>
      </trkpt>
      <trkpt lat="48.17174" lon="-3.14535">
        <ele>234.699219</ele>
        <time>2020-07-24T11:54:14.000Z</time>
      </trkpt>
      <trkpt lat="48.17177" lon="-3.14549">
        <ele>235.398438</ele>
        <time>2020-07-24T11:54:17.000Z</time>
      </trkpt>
      <trkpt lat="48.17181" lon="-3.14577">
        <ele>238.398438</ele>
        <time>2020-07-24T11:54:23.000Z</time>
      </trkpt>
      <trkpt lat="48.17184" lon="-3.14591">
        <ele>240</ele>
        <time>2020-07-24T11:54:26.000Z</time>
      </trkpt>
      <trkpt lat="48.17193" lon="-3.14631">
        <ele>244.199219</ele>
        <time>2020-07-24T11:54:35.000Z</time>
      </trkpt>
      <trkpt lat="48.17202" lon="-3.14656">
        <ele>246.398438</ele>
        <time>2020-07-24T11:54:41.000Z</time>
      </trkpt>
      <trkpt lat="48.17207" lon="-3.14668">
        <ele>247</ele>
        <time>2020-07-24T11:54:44.000Z</time>
      </trkpt>
      <trkpt lat="48.17224" lon="-3.14703">
        <ele>249.097656</ele>
        <time>2020-07-24T11:54:53.000Z</time>
      </trkpt>
      <trkpt lat="48.17243" lon="-3.14738">
        <ele>250</ele>
        <time>2020-07-24T11:55:02.000Z</time>
      </trkpt>
      <trkpt lat="48.17283" lon="-3.14804">
        <ele>248.597656</ele>
        <time>2020-07-24T11:55:17.000Z</time>
      </trkpt>
      <trkpt lat="48.17291" lon="-3.14813">
        <ele>247.699219</ele>
        <time>2020-07-24T11:55:19.000Z</time>
      </trkpt>
      <trkpt lat="48.17318" lon="-3.14854">
        <ele>244.699219</ele>
        <time>2020-07-24T11:55:25.000Z</time>
      </trkpt>
      <trkpt lat="48.17328" lon="-3.14871">
        <ele>243.796875</ele>
        <time>2020-07-24T11:55:27.000Z</time>
      </trkpt>
      <trkpt lat="48.17335" lon="-3.14891">
        <ele>243.097656</ele>
        <time>2020-07-24T11:55:29.000Z</time>
      </trkpt>
      <trkpt lat="48.17341" lon="-3.14913">
        <ele>241.699219</ele>
        <time>2020-07-24T11:55:31.000Z</time>
      </trkpt>
      <trkpt lat="48.17345" lon="-3.14937">
        <ele>240.199219</ele>
        <time>2020-07-24T11:55:33.000Z</time>
      </trkpt>
      <trkpt lat="48.17364" lon="-3.15037">
        <ele>235.398438</ele>
        <time>2020-07-24T11:55:40.000Z</time>
      </trkpt>
      <trkpt lat="48.17373" lon="-3.15065">
        <ele>235</ele>
        <time>2020-07-24T11:55:42.000Z</time>
      </trkpt>
      <trkpt lat="48.17428" lon="-3.15215">
        <ele>235.898438</ele>
        <time>2020-07-24T11:55:56.000Z</time>
      </trkpt>
      <trkpt lat="48.17435" lon="-3.15231">
        <ele>235.898438</ele>
        <time>2020-07-24T11:55:58.000Z</time>
      </trkpt>
      <trkpt lat="48.1744" lon="-3.15248">
        <ele>235.898438</ele>
        <time>2020-07-24T11:56:00.000Z</time>
      </trkpt>
      <trkpt lat="48.17454" lon="-3.15298">
        <ele>234.898438</ele>
        <time>2020-07-24T11:56:06.000Z</time>
      </trkpt>
      <trkpt lat="48.17488" lon="-3.15429">
        <ele>231.796875</ele>
        <time>2020-07-24T11:56:20.000Z</time>
      </trkpt>
      <trkpt lat="48.17524" lon="-3.15528">
        <ele>230.699219</ele>
        <time>2020-07-24T11:56:32.000Z</time>
      </trkpt>
      <trkpt lat="48.17579" lon="-3.15668">
        <ele>225.398438</ele>
        <time>2020-07-24T11:56:50.000Z</time>
      </trkpt>
      <trkpt lat="48.17587" lon="-3.1568">
        <ele>224.898438</ele>
        <time>2020-07-24T11:56:52.000Z</time>
      </trkpt>
      <trkpt lat="48.17598" lon="-3.15687">
        <ele>224.699219</ele>
        <time>2020-07-24T11:56:54.000Z</time>
      </trkpt>
      <trkpt lat="48.17627" lon="-3.15704">
        <ele>223.597656</ele>
        <time>2020-07-24T11:57:00.000Z</time>
      </trkpt>
      <trkpt lat="48.17636" lon="-3.15713">
        <ele>223.097656</ele>
        <time>2020-07-24T11:57:02.000Z</time>
      </trkpt>
      <trkpt lat="48.17656" lon="-3.15733">
        <ele>221.898438</ele>
        <time>2020-07-24T11:57:06.000Z</time>
      </trkpt>
      <trkpt lat="48.17667" lon="-3.15742">
        <ele>221.296875</ele>
        <time>2020-07-24T11:57:08.000Z</time>
      </trkpt>
      <trkpt lat="48.17678" lon="-3.1575">
        <ele>221.199219</ele>
        <time>2020-07-24T11:57:11.000Z</time>
      </trkpt>
      <trkpt lat="48.17687" lon="-3.15755">
        <ele>223.398438</ele>
        <time>2020-07-24T11:57:15.000Z</time>
      </trkpt>
      <trkpt lat="48.17695" lon="-3.15762">
        <ele>223.898438</ele>
        <time>2020-07-24T11:58:32.000Z</time>
      </trkpt>
      <trkpt lat="48.17706" lon="-3.15769">
        <ele>224.296875</ele>
        <time>2020-07-24T11:58:37.000Z</time>
      </trkpt>
      <trkpt lat="48.17717" lon="-3.15773">
        <ele>224.199219</ele>
        <time>2020-07-24T11:58:41.000Z</time>
      </trkpt>
      <trkpt lat="48.17768" lon="-3.15794">
        <ele>223.199219</ele>
        <time>2020-07-24T11:58:53.000Z</time>
      </trkpt>
      <trkpt lat="48.17798" lon="-3.15801">
        <ele>223.199219</ele>
        <time>2020-07-24T11:59:00.000Z</time>
      </trkpt>
      <trkpt lat="48.17808" lon="-3.15806">
        <ele>223.296875</ele>
        <time>2020-07-24T11:59:05.000Z</time>
      </trkpt>
      <trkpt lat="48.1784" lon="-3.15819">
        <ele>222.699219</ele>
        <time>2020-07-24T11:59:15.000Z</time>
      </trkpt>
      <trkpt lat="48.17857" lon="-3.1583">
        <ele>222.796875</ele>
        <time>2020-07-24T11:59:19.000Z</time>
      </trkpt>
      <trkpt lat="48.17866" lon="-3.15837">
        <ele>222.796875</ele>
        <time>2020-07-24T11:59:21.000Z</time>
      </trkpt>
      <trkpt lat="48.17874" lon="-3.15845">
        <ele>222.898438</ele>
        <time>2020-07-24T11:59:23.000Z</time>
      </trkpt>
      <trkpt lat="48.17891" lon="-3.15862">
        <ele>222.597656</ele>
        <time>2020-07-24T11:59:27.000Z</time>
      </trkpt>
      <trkpt lat="48.17906" lon="-3.15882">
        <ele>222.398438</ele>
        <time>2020-07-24T11:59:31.000Z</time>
      </trkpt>
      <trkpt lat="48.17974" lon="-3.15983">
        <ele>223.398438</ele>
        <time>2020-07-24T12:00:02.000Z</time>
      </trkpt>
      <trkpt lat="48.17981" lon="-3.15997">
        <ele>223.796875</ele>
        <time>2020-07-24T12:00:05.000Z</time>
      </trkpt>
      <trkpt lat="48.17987" lon="-3.1601">
        <ele>224.296875</ele>
        <time>2020-07-24T12:00:08.000Z</time>
      </trkpt>
      <trkpt lat="48.17994" lon="-3.16023">
        <ele>224.796875</ele>
        <time>2020-07-24T12:00:11.000Z</time>
      </trkpt>
      <trkpt lat="48.18001" lon="-3.16034">
        <ele>225.398438</ele>
        <time>2020-07-24T12:00:14.000Z</time>
      </trkpt>
      <trkpt lat="48.1801" lon="-3.1604">
        <ele>225.898438</ele>
        <time>2020-07-24T12:00:18.000Z</time>
      </trkpt>
      <trkpt lat="48.18019" lon="-3.16043">
        <ele>226.296875</ele>
        <time>2020-07-24T12:00:22.000Z</time>
      </trkpt>
      <trkpt lat="48.18029" lon="-3.1604">
        <ele>226.296875</ele>
        <time>2020-07-24T12:00:26.000Z</time>
      </trkpt>
      <trkpt lat="48.18038" lon="-3.16034">
        <ele>226.5</ele>
        <time>2020-07-24T12:00:30.000Z</time>
      </trkpt>
      <trkpt lat="48.18047" lon="-3.16024">
        <ele>226.796875</ele>
        <time>2020-07-24T12:00:34.000Z</time>
      </trkpt>
      <trkpt lat="48.18055" lon="-3.16012">
        <ele>227</ele>
        <time>2020-07-24T12:00:38.000Z</time>
      </trkpt>
      <trkpt lat="48.18187" lon="-3.15811">
        <ele>231.398438</ele>
        <time>2020-07-24T12:01:35.000Z</time>
      </trkpt>
      <trkpt lat="48.18196" lon="-3.158">
        <ele>231.597656</ele>
        <time>2020-07-24T12:01:38.000Z</time>
      </trkpt>
      <trkpt lat="48.18205" lon="-3.15789">
        <ele>231.898438</ele>
        <time>2020-07-24T12:01:41.000Z</time>
      </trkpt>
      <trkpt lat="48.18214" lon="-3.15781">
        <ele>232.097656</ele>
        <time>2020-07-24T12:01:44.000Z</time>
      </trkpt>
      <trkpt lat="48.18226" lon="-3.15775">
        <ele>232.398438</ele>
        <time>2020-07-24T12:01:47.000Z</time>
      </trkpt>
      <trkpt lat="48.18237" lon="-3.1577">
        <ele>232.597656</ele>
        <time>2020-07-24T12:01:50.000Z</time>
      </trkpt>
      <trkpt lat="48.18364" lon="-3.15719">
        <ele>229.398438</ele>
        <time>2020-07-24T12:02:26.000Z</time>
      </trkpt>
      <trkpt lat="48.1841" lon="-3.15695">
        <ele>230.597656</ele>
        <time>2020-07-24T12:02:38.000Z</time>
      </trkpt>
      <trkpt lat="48.1842" lon="-3.15691">
        <ele>229.898438</ele>
        <time>2020-07-24T12:02:40.000Z</time>
      </trkpt>
      <trkpt lat="48.18431" lon="-3.15689">
        <ele>229.199219</ele>
        <time>2020-07-24T12:02:42.000Z</time>
      </trkpt>
      <trkpt lat="48.18443" lon="-3.15688">
        <ele>228.5</ele>
        <time>2020-07-24T12:02:44.000Z</time>
      </trkpt>
      <trkpt lat="48.18517" lon="-3.15684">
        <ele>225</ele>
        <time>2020-07-24T12:02:56.000Z</time>
      </trkpt>
      <trkpt lat="48.18528" lon="-3.15681">
        <ele>225.199219</ele>
        <time>2020-07-24T12:02:58.000Z</time>
      </trkpt>
      <trkpt lat="48.18539" lon="-3.15677">
        <ele>225.398438</ele>
        <time>2020-07-24T12:03:00.000Z</time>
      </trkpt>
      <trkpt lat="48.1857" lon="-3.15663">
        <ele>226</ele>
        <time>2020-07-24T12:03:06.000Z</time>
      </trkpt>
      <trkpt lat="48.18579" lon="-3.15657">
        <ele>225.699219</ele>
        <time>2020-07-24T12:03:08.000Z</time>
      </trkpt>
      <trkpt lat="48.1865" lon="-3.15611">
        <ele>228.398438</ele>
        <time>2020-07-24T12:03:24.000Z</time>
      </trkpt>
      <trkpt lat="48.18812" lon="-3.15505">
        <ele>228.5</ele>
        <time>2020-07-24T12:03:56.000Z</time>
      </trkpt>
      <trkpt lat="48.18945" lon="-3.15425">
        <ele>228.199219</ele>
        <time>2020-07-24T12:04:22.000Z</time>
      </trkpt>
      <trkpt lat="48.18955" lon="-3.15422">
        <ele>228.296875</ele>
        <time>2020-07-24T12:04:24.000Z</time>
      </trkpt>
      <trkpt lat="48.18964" lon="-3.15418">
        <ele>229.097656</ele>
        <time>2020-07-24T12:04:26.000Z</time>
      </trkpt>
      <trkpt lat="48.18998" lon="-3.15409">
        <ele>230.796875</ele>
        <time>2020-07-24T12:04:35.000Z</time>
      </trkpt>
      <trkpt lat="48.1918" lon="-3.15362">
        <ele>242.597656</ele>
        <time>2020-07-24T12:05:36.000Z</time>
      </trkpt>
      <trkpt lat="48.19212" lon="-3.15349">
        <ele>244.097656</ele>
        <time>2020-07-24T12:05:47.000Z</time>
      </trkpt>
      <trkpt lat="48.1923" lon="-3.15341">
        <ele>244.398438</ele>
        <time>2020-07-24T12:05:53.000Z</time>
      </trkpt>
      <trkpt lat="48.19351" lon="-3.15292">
        <ele>252.097656</ele>
        <time>2020-07-24T12:06:31.000Z</time>
      </trkpt>
      <trkpt lat="48.1944" lon="-3.15269">
        <ele>259.097656</ele>
        <time>2020-07-24T12:07:07.000Z</time>
      </trkpt>
      <trkpt lat="48.19493" lon="-3.15261">
        <ele>266.097656</ele>
        <time>2020-07-24T12:07:27.000Z</time>
      </trkpt>
      <trkpt lat="48.19521" lon="-3.15261">
        <ele>267.296875</ele>
        <time>2020-07-24T12:07:36.000Z</time>
      </trkpt>
      <trkpt lat="48.19543" lon="-3.15263">
        <ele>267.296875</ele>
        <time>2020-07-24T12:07:43.000Z</time>
      </trkpt>
      <trkpt lat="48.19567" lon="-3.15268">
        <ele>267.796875</ele>
        <time>2020-07-24T12:07:49.000Z</time>
      </trkpt>
      <trkpt lat="48.19586" lon="-3.15274">
        <ele>268.5</ele>
        <time>2020-07-24T12:07:53.000Z</time>
      </trkpt>
      <trkpt lat="48.19595" lon="-3.15275">
        <ele>268.597656</ele>
        <time>2020-07-24T12:07:55.000Z</time>
      </trkpt>
      <trkpt lat="48.19605" lon="-3.15277">
        <ele>268.5</ele>
        <time>2020-07-24T12:07:57.000Z</time>
      </trkpt>
      <trkpt lat="48.19616" lon="-3.15276">
        <ele>268.296875</ele>
        <time>2020-07-24T12:07:59.000Z</time>
      </trkpt>
      <trkpt lat="48.19628" lon="-3.15274">
        <ele>268.097656</ele>
        <time>2020-07-24T12:08:01.000Z</time>
      </trkpt>
      <trkpt lat="48.1964" lon="-3.15271">
        <ele>267.796875</ele>
        <time>2020-07-24T12:08:03.000Z</time>
      </trkpt>
      <trkpt lat="48.19652" lon="-3.15265">
        <ele>267.597656</ele>
        <time>2020-07-24T12:08:05.000Z</time>
      </trkpt>
      <trkpt lat="48.19664" lon="-3.15259">
        <ele>267.5</ele>
        <time>2020-07-24T12:08:07.000Z</time>
      </trkpt>
      <trkpt lat="48.19676" lon="-3.15252">
        <ele>267.398438</ele>
        <time>2020-07-24T12:08:09.000Z</time>
      </trkpt>
      <trkpt lat="48.19686" lon="-3.15245">
        <ele>267.296875</ele>
        <time>2020-07-24T12:08:11.000Z</time>
      </trkpt>
      <trkpt lat="48.19697" lon="-3.15236">
        <ele>267.199219</ele>
        <time>2020-07-24T12:08:13.000Z</time>
      </trkpt>
      <trkpt lat="48.19776" lon="-3.15162">
        <ele>267.398438</ele>
        <time>2020-07-24T12:08:29.000Z</time>
      </trkpt>
      <trkpt lat="48.19811" lon="-3.15123">
        <ele>266.796875</ele>
        <time>2020-07-24T12:08:37.000Z</time>
      </trkpt>
      <trkpt lat="48.19819" lon="-3.15113">
        <ele>266.5</ele>
        <time>2020-07-24T12:08:39.000Z</time>
      </trkpt>
      <trkpt lat="48.1984" lon="-3.1508">
        <ele>265.5</ele>
        <time>2020-07-24T12:08:45.000Z</time>
      </trkpt>
      <trkpt lat="48.19869" lon="-3.15031">
        <ele>264.398438</ele>
        <time>2020-07-24T12:08:53.000Z</time>
      </trkpt>
      <trkpt lat="48.19881" lon="-3.15006">
        <ele>264.398438</ele>
        <time>2020-07-24T12:08:57.000Z</time>
      </trkpt>
      <trkpt lat="48.19892" lon="-3.14981">
        <ele>265</ele>
        <time>2020-07-24T12:09:01.000Z</time>
      </trkpt>
      <trkpt lat="48.19896" lon="-3.14969">
        <ele>265.5</ele>
        <time>2020-07-24T12:09:03.000Z</time>
      </trkpt>
      <trkpt lat="48.19901" lon="-3.14951">
        <ele>265.199219</ele>
        <time>2020-07-24T12:09:06.000Z</time>
      </trkpt>
      <trkpt lat="48.19905" lon="-3.14932">
        <ele>265</ele>
        <time>2020-07-24T12:09:09.000Z</time>
      </trkpt>
      <trkpt lat="48.19952" lon="-3.14719">
        <ele>265</ele>
        <time>2020-07-24T12:09:39.000Z</time>
      </trkpt>
      <trkpt lat="48.19958" lon="-3.14705">
        <ele>264.796875</ele>
        <time>2020-07-24T12:09:41.000Z</time>
      </trkpt>
      <trkpt lat="48.19964" lon="-3.14691">
        <ele>264.199219</ele>
        <time>2020-07-24T12:09:43.000Z</time>
      </trkpt>
      <trkpt lat="48.19977" lon="-3.14666">
        <ele>262.699219</ele>
        <time>2020-07-24T12:09:47.000Z</time>
      </trkpt>
      <trkpt lat="48.1999" lon="-3.14642">
        <ele>262.097656</ele>
        <time>2020-07-24T12:09:51.000Z</time>
      </trkpt>
      <trkpt lat="48.20004" lon="-3.1462">
        <ele>262.296875</ele>
        <time>2020-07-24T12:09:55.000Z</time>
      </trkpt>
      <trkpt lat="48.20011" lon="-3.1461">
        <ele>262.398438</ele>
        <time>2020-07-24T12:09:57.000Z</time>
      </trkpt>
      <trkpt lat="48.20019" lon="-3.14601">
        <ele>262.699219</ele>
        <time>2020-07-24T12:09:59.000Z</time>
      </trkpt>
      <trkpt lat="48.20027" lon="-3.14593">
        <ele>263</ele>
        <time>2020-07-24T12:10:01.000Z</time>
      </trkpt>
      <trkpt lat="48.20035" lon="-3.14586">
        <ele>263.5</ele>
        <time>2020-07-24T12:10:03.000Z</time>
      </trkpt>
      <trkpt lat="48.20084" lon="-3.14543">
        <ele>265.796875</ele>
        <time>2020-07-24T12:10:18.000Z</time>
      </trkpt>
      <trkpt lat="48.20093" lon="-3.14533">
        <ele>266.296875</ele>
        <time>2020-07-24T12:10:21.000Z</time>
      </trkpt>
      <trkpt lat="48.20109" lon="-3.14512">
        <ele>266.796875</ele>
        <time>2020-07-24T12:10:27.000Z</time>
      </trkpt>
      <trkpt lat="48.2014" lon="-3.14469">
        <ele>268.796875</ele>
        <time>2020-07-24T12:10:39.000Z</time>
      </trkpt>
      <trkpt lat="48.20149" lon="-3.1446">
        <ele>269.199219</ele>
        <time>2020-07-24T12:10:42.000Z</time>
      </trkpt>
      <trkpt lat="48.20157" lon="-3.14453">
        <ele>269.699219</ele>
        <time>2020-07-24T12:10:45.000Z</time>
      </trkpt>
      <trkpt lat="48.20184" lon="-3.14432">
        <ele>268.796875</ele>
        <time>2020-07-24T12:10:54.000Z</time>
      </trkpt>
      <trkpt lat="48.20194" lon="-3.14426">
        <ele>267.796875</ele>
        <time>2020-07-24T12:10:57.000Z</time>
      </trkpt>
      <trkpt lat="48.20205" lon="-3.14416">
        <ele>267</ele>
        <time>2020-07-24T12:11:00.000Z</time>
      </trkpt>
      <trkpt lat="48.20215" lon="-3.1441">
        <ele>266.296875</ele>
        <time>2020-07-24T12:11:02.000Z</time>
      </trkpt>
      <trkpt lat="48.20225" lon="-3.14405">
        <ele>265.597656</ele>
        <time>2020-07-24T12:11:04.000Z</time>
      </trkpt>
      <trkpt lat="48.20251" lon="-3.14394">
        <ele>264.398438</ele>
        <time>2020-07-24T12:11:08.000Z</time>
      </trkpt>
      <trkpt lat="48.20283" lon="-3.14384">
        <ele>262.5</ele>
        <time>2020-07-24T12:11:12.000Z</time>
      </trkpt>
      <trkpt lat="48.2036" lon="-3.14363">
        <ele>257.597656</ele>
        <time>2020-07-24T12:11:20.000Z</time>
      </trkpt>
      <trkpt lat="48.20405" lon="-3.14341">
        <ele>254.097656</ele>
        <time>2020-07-24T12:11:25.000Z</time>
      </trkpt>
      <trkpt lat="48.20484" lon="-3.14298">
        <ele>248.796875</ele>
        <time>2020-07-24T12:11:35.000Z</time>
      </trkpt>
      <trkpt lat="48.20496" lon="-3.14297">
        <ele>248.898438</ele>
        <time>2020-07-24T12:11:37.000Z</time>
      </trkpt>
      <trkpt lat="48.20506" lon="-3.14299">
        <ele>248.699219</ele>
        <time>2020-07-24T12:11:39.000Z</time>
      </trkpt>
      <trkpt lat="48.20517" lon="-3.14302">
        <ele>248.5</ele>
        <time>2020-07-24T12:11:42.000Z</time>
      </trkpt>
      <trkpt lat="48.20527" lon="-3.14301">
        <ele>250.199219</ele>
        <time>2020-07-24T12:11:48.000Z</time>
      </trkpt>
      <trkpt lat="48.20537" lon="-3.14296">
        <ele>249.296875</ele>
        <time>2020-07-24T12:11:57.000Z</time>
      </trkpt>
      <trkpt lat="48.20546" lon="-3.14289">
        <ele>249.199219</ele>
        <time>2020-07-24T12:12:01.000Z</time>
      </trkpt>
      <trkpt lat="48.20563" lon="-3.14276">
        <ele>247.597656</ele>
        <time>2020-07-24T12:12:07.000Z</time>
      </trkpt>
      <trkpt lat="48.20571" lon="-3.14268">
        <ele>245.199219</ele>
        <time>2020-07-24T12:12:10.000Z</time>
      </trkpt>
      <trkpt lat="48.20581" lon="-3.14256">
        <ele>243.898438</ele>
        <time>2020-07-24T12:12:13.000Z</time>
      </trkpt>
      <trkpt lat="48.20604" lon="-3.14225">
        <ele>241.597656</ele>
        <time>2020-07-24T12:12:19.000Z</time>
      </trkpt>
      <trkpt lat="48.20661" lon="-3.14139">
        <ele>241</ele>
        <time>2020-07-24T12:12:33.000Z</time>
      </trkpt>
      <trkpt lat="48.20669" lon="-3.14126">
        <ele>240.898438</ele>
        <time>2020-07-24T12:12:35.000Z</time>
      </trkpt>
      <trkpt lat="48.20699" lon="-3.14071">
        <ele>238.296875</ele>
        <time>2020-07-24T12:12:43.000Z</time>
      </trkpt>
      <trkpt lat="48.20782" lon="-3.13923">
        <ele>219.699219</ele>
        <time>2020-07-24T12:12:57.000Z</time>
      </trkpt>
      <trkpt lat="48.20902" lon="-3.13742">
        <ele>203.898438</ele>
        <time>2020-07-24T12:13:09.000Z</time>
      </trkpt>
      <trkpt lat="48.20959" lon="-3.13673">
        <ele>198.5</ele>
        <time>2020-07-24T12:13:14.000Z</time>
      </trkpt>
      <trkpt lat="48.21113" lon="-3.13513">
        <ele>177.296875</ele>
        <time>2020-07-24T12:13:27.000Z</time>
      </trkpt>
      <trkpt lat="48.21154" lon="-3.13476">
        <ele>171.898438</ele>
        <time>2020-07-24T12:13:31.000Z</time>
      </trkpt>
      <trkpt lat="48.21162" lon="-3.13465">
        <ele>170.296875</ele>
        <time>2020-07-24T12:13:32.000Z</time>
      </trkpt>
      <trkpt lat="48.21169" lon="-3.13451">
        <ele>168.597656</ele>
        <time>2020-07-24T12:13:33.000Z</time>
      </trkpt>
      <trkpt lat="48.21175" lon="-3.13436">
        <ele>166.398438</ele>
        <time>2020-07-24T12:13:34.000Z</time>
      </trkpt>
      <trkpt lat="48.21181" lon="-3.13419">
        <ele>164.199219</ele>
        <time>2020-07-24T12:13:35.000Z</time>
      </trkpt>
      <trkpt lat="48.21186" lon="-3.13401">
        <ele>161.898438</ele>
        <time>2020-07-24T12:13:36.000Z</time>
      </trkpt>
      <trkpt lat="48.21224" lon="-3.13234">
        <ele>146.5</ele>
        <time>2020-07-24T12:13:45.000Z</time>
      </trkpt>
      <trkpt lat="48.21226" lon="-3.13217">
        <ele>145.5</ele>
        <time>2020-07-24T12:13:46.000Z</time>
      </trkpt>
      <trkpt lat="48.21228" lon="-3.13201">
        <ele>144.097656</ele>
        <time>2020-07-24T12:13:47.000Z</time>
      </trkpt>
      <trkpt lat="48.21228" lon="-3.13184">
        <ele>142</ele>
        <time>2020-07-24T12:13:48.000Z</time>
      </trkpt>
      <trkpt lat="48.21228" lon="-3.13167">
        <ele>139.796875</ele>
        <time>2020-07-24T12:13:49.000Z</time>
      </trkpt>
      <trkpt lat="48.21227" lon="-3.13152">
        <ele>138.398438</ele>
        <time>2020-07-24T12:13:50.000Z</time>
      </trkpt>
      <trkpt lat="48.21224" lon="-3.13136">
        <ele>137.699219</ele>
        <time>2020-07-24T12:13:51.000Z</time>
      </trkpt>
      <trkpt lat="48.2122" lon="-3.13123">
        <ele>137</ele>
        <time>2020-07-24T12:13:52.000Z</time>
      </trkpt>
      <trkpt lat="48.21215" lon="-3.13111">
        <ele>136.398438</ele>
        <time>2020-07-24T12:13:53.000Z</time>
      </trkpt>
      <trkpt lat="48.21208" lon="-3.13101">
        <ele>135.699219</ele>
        <time>2020-07-24T12:13:54.000Z</time>
      </trkpt>
      <trkpt lat="48.21201" lon="-3.13091">
        <ele>134.898438</ele>
        <time>2020-07-24T12:13:55.000Z</time>
      </trkpt>
      <trkpt lat="48.21182" lon="-3.13065">
        <ele>132.199219</ele>
        <time>2020-07-24T12:13:58.000Z</time>
      </trkpt>
      <trkpt lat="48.21172" lon="-3.13049">
        <ele>131.097656</ele>
        <time>2020-07-24T12:14:00.000Z</time>
      </trkpt>
      <trkpt lat="48.21164" lon="-3.13033">
        <ele>130.097656</ele>
        <time>2020-07-24T12:14:02.000Z</time>
      </trkpt>
      <trkpt lat="48.2116" lon="-3.1302">
        <ele>129.898438</ele>
        <time>2020-07-24T12:14:04.000Z</time>
      </trkpt>
      <trkpt lat="48.21161" lon="-3.13006">
        <ele>132.046875</ele>
        <time>2020-07-24T12:14:07.000Z</time>
      </trkpt>
      <trkpt lat="48.21169" lon="-3.13001">
        <ele>135.597656</ele>
        <time>2020-07-24T12:14:20.000Z</time>
      </trkpt>
      <trkpt lat="48.2118" lon="-3.13002">
        <ele>136</ele>
        <time>2020-07-24T12:14:36.000Z</time>
      </trkpt>
      <trkpt lat="48.21191" lon="-3.13003">
        <ele>135.898438</ele>
        <time>2020-07-24T12:14:40.000Z</time>
      </trkpt>
      <trkpt lat="48.21201" lon="-3.13">
        <ele>136</ele>
        <time>2020-07-24T12:14:44.000Z</time>
      </trkpt>
      <trkpt lat="48.2121" lon="-3.12992">
        <ele>135.898438</ele>
        <time>2020-07-24T12:14:48.000Z</time>
      </trkpt>
      <trkpt lat="48.21217" lon="-3.12981">
        <ele>135.699219</ele>
        <time>2020-07-24T12:14:52.000Z</time>
      </trkpt>
      <trkpt lat="48.21236" lon="-3.1295">
        <ele>137.199219</ele>
        <time>2020-07-24T12:15:02.000Z</time>
      </trkpt>
      <trkpt lat="48.2124" lon="-3.12934">
        <ele>136.097656</ele>
        <time>2020-07-24T12:18:51.000Z</time>
      </trkpt>
      <trkpt lat="48.21246" lon="-3.12924">
        <ele>135.699219</ele>
        <time>2020-07-24T12:18:55.000Z</time>
      </trkpt>
      <trkpt lat="48.21253" lon="-3.12913">
        <ele>135.5</ele>
        <time>2020-07-24T12:18:59.000Z</time>
      </trkpt>
      <trkpt lat="48.21272" lon="-3.12878">
        <ele>135.296875</ele>
        <time>2020-07-24T12:19:09.000Z</time>
      </trkpt>
      <trkpt lat="48.2128" lon="-3.12869">
        <ele>135.296875</ele>
        <time>2020-07-24T12:19:12.000Z</time>
      </trkpt>
      <trkpt lat="48.2132" lon="-3.1282">
        <ele>132.296875</ele>
        <time>2020-07-24T12:19:28.000Z</time>
      </trkpt>
      <trkpt lat="48.21465" lon="-3.12655">
        <ele>137.097656</ele>
        <time>2020-07-24T12:20:16.000Z</time>
      </trkpt>
      <trkpt lat="48.21474" lon="-3.12652">
        <ele>137.097656</ele>
        <time>2020-07-24T12:20:20.000Z</time>
      </trkpt>
      <trkpt lat="48.21481" lon="-3.1266">
        <ele>136.398438</ele>
        <time>2020-07-24T12:20:24.000Z</time>
      </trkpt>
      <trkpt lat="48.21485" lon="-3.12677">
        <ele>136.199219</ele>
        <time>2020-07-24T12:20:28.000Z</time>
      </trkpt>
      <trkpt lat="48.21487" lon="-3.12692">
        <ele>135.898438</ele>
        <time>2020-07-24T12:20:31.000Z</time>
      </trkpt>
      <trkpt lat="48.21496" lon="-3.12776">
        <ele>135.796875</ele>
        <time>2020-07-24T12:20:46.000Z</time>
      </trkpt>
      <trkpt lat="48.215" lon="-3.12788">
        <ele>136.097656</ele>
        <time>2020-07-24T12:20:49.000Z</time>
      </trkpt>
      <trkpt lat="48.2151" lon="-3.12791">
        <ele>136.5</ele>
        <time>2020-07-24T12:20:54.000Z</time>
      </trkpt>
      <trkpt lat="48.21519" lon="-3.12794">
        <ele>136.796875</ele>
        <time>2020-07-24T12:21:00.000Z</time>
      </trkpt>
      <trkpt lat="48.21528" lon="-3.12794">
        <ele>137.199219</ele>
        <time>2020-07-24T12:21:05.000Z</time>
      </trkpt>
      <trkpt lat="48.21589" lon="-3.12797">
        <ele>141.398438</ele>
        <time>2020-07-24T12:21:26.000Z</time>
      </trkpt>
      <trkpt lat="48.21598" lon="-3.12802">
        <ele>142.597656</ele>
        <time>2020-07-24T12:21:30.000Z</time>
      </trkpt>
      <trkpt lat="48.21605" lon="-3.12811">
        <ele>143.796875</ele>
        <time>2020-07-24T12:21:34.000Z</time>
      </trkpt>
      <trkpt lat="48.21609" lon="-3.12823">
        <ele>145</ele>
        <time>2020-07-24T12:21:38.000Z</time>
      </trkpt>
      <trkpt lat="48.21609" lon="-3.12837">
        <ele>146.398438</ele>
        <time>2020-07-24T12:21:42.000Z</time>
      </trkpt>
      <trkpt lat="48.21608" lon="-3.12851">
        <ele>148</ele>
        <time>2020-07-24T12:21:46.000Z</time>
      </trkpt>
      <trkpt lat="48.21605" lon="-3.12865">
        <ele>149.5</ele>
        <time>2020-07-24T12:21:50.000Z</time>
      </trkpt>
      <trkpt lat="48.21607" lon="-3.12879">
        <ele>149.898438</ele>
        <time>2020-07-24T12:21:55.000Z</time>
      </trkpt>
      <trkpt lat="48.21616" lon="-3.12873">
        <ele>149.597656</ele>
        <time>2020-07-24T12:22:00.000Z</time>
      </trkpt>
      <trkpt lat="48.21623" lon="-3.12863">
        <ele>149.796875</ele>
        <time>2020-07-24T12:22:04.000Z</time>
      </trkpt>
      <trkpt lat="48.21654" lon="-3.12815">
        <ele>149.296875</ele>
        <time>2020-07-24T12:22:19.000Z</time>
      </trkpt>
      <trkpt lat="48.2166" lon="-3.12804">
        <ele>149.5</ele>
        <time>2020-07-24T12:22:22.000Z</time>
      </trkpt>
      <trkpt lat="48.21666" lon="-3.12792">
        <ele>149.796875</ele>
        <time>2020-07-24T12:22:25.000Z</time>
      </trkpt>
      <trkpt lat="48.2167" lon="-3.1278">
        <ele>150.5</ele>
        <time>2020-07-24T12:22:28.000Z</time>
      </trkpt>
      <trkpt lat="48.21723" lon="-3.12633">
        <ele>153.296875</ele>
        <time>2020-07-24T12:23:04.000Z</time>
      </trkpt>
      <trkpt lat="48.21729" lon="-3.12621">
        <ele>153.199219</ele>
        <time>2020-07-24T12:23:07.000Z</time>
      </trkpt>
      <trkpt lat="48.21748" lon="-3.12582">
        <ele>149.898438</ele>
        <time>2020-07-24T12:23:18.000Z</time>
      </trkpt>
      <trkpt lat="48.21767" lon="-3.12548">
        <ele>146.5</ele>
        <time>2020-07-24T12:23:27.000Z</time>
      </trkpt>
      <trkpt lat="48.21774" lon="-3.12538">
        <ele>146.5</ele>
        <time>2020-07-24T12:23:30.000Z</time>
      </trkpt>
      <trkpt lat="48.21788" lon="-3.12516">
        <ele>145.5</ele>
        <time>2020-07-24T12:23:36.000Z</time>
      </trkpt>
      <trkpt lat="48.21794" lon="-3.12504">
        <ele>145.296875</ele>
        <time>2020-07-24T12:23:39.000Z</time>
      </trkpt>
      <trkpt lat="48.218" lon="-3.12493">
        <ele>145.296875</ele>
        <time>2020-07-24T12:23:42.000Z</time>
      </trkpt>
      <trkpt lat="48.21816" lon="-3.12453">
        <ele>147.699219</ele>
        <time>2020-07-24T12:23:51.000Z</time>
      </trkpt>
      <trkpt lat="48.21822" lon="-3.12438">
        <ele>148.796875</ele>
        <time>2020-07-24T12:23:54.000Z</time>
      </trkpt>
      <trkpt lat="48.21826" lon="-3.12423">
        <ele>149.597656</ele>
        <time>2020-07-24T12:23:57.000Z</time>
      </trkpt>
      <trkpt lat="48.21829" lon="-3.12409">
        <ele>149.699219</ele>
        <time>2020-07-24T12:24:00.000Z</time>
      </trkpt>
      <trkpt lat="48.21835" lon="-3.12376">
        <ele>150.597656</ele>
        <time>2020-07-24T12:24:08.000Z</time>
      </trkpt>
      <trkpt lat="48.21837" lon="-3.12362">
        <ele>151.699219</ele>
        <time>2020-07-24T12:24:11.000Z</time>
      </trkpt>
      <trkpt lat="48.21839" lon="-3.12345">
        <ele>152.5</ele>
        <time>2020-07-24T12:24:15.000Z</time>
      </trkpt>
      <trkpt lat="48.21839" lon="-3.12328">
        <ele>153.199219</ele>
        <time>2020-07-24T12:24:19.000Z</time>
      </trkpt>
      <trkpt lat="48.21838" lon="-3.12312">
        <ele>153.5</ele>
        <time>2020-07-24T12:24:23.000Z</time>
      </trkpt>
      <trkpt lat="48.21838" lon="-3.12297">
        <ele>154</ele>
        <time>2020-07-24T12:24:28.000Z</time>
      </trkpt>
      <trkpt lat="48.21836" lon="-3.12281">
        <ele>155.097656</ele>
        <time>2020-07-24T12:24:32.000Z</time>
      </trkpt>
      <trkpt lat="48.21834" lon="-3.12267">
        <ele>158.597656</ele>
        <time>2020-07-24T12:24:36.000Z</time>
      </trkpt>
      <trkpt lat="48.21828" lon="-3.12239">
        <ele>159.5</ele>
        <time>2020-07-24T12:24:53.000Z</time>
      </trkpt>
      <trkpt lat="48.21824" lon="-3.12224">
        <ele>159.796875</ele>
        <time>2020-07-24T12:24:58.000Z</time>
      </trkpt>
      <trkpt lat="48.2182" lon="-3.1221">
        <ele>160.796875</ele>
        <time>2020-07-24T12:25:02.000Z</time>
      </trkpt>
      <trkpt lat="48.21815" lon="-3.12196">
        <ele>162.199219</ele>
        <time>2020-07-24T12:25:06.000Z</time>
      </trkpt>
      <trkpt lat="48.21809" lon="-3.12183">
        <ele>163.199219</ele>
        <time>2020-07-24T12:25:10.000Z</time>
      </trkpt>
      <trkpt lat="48.21803" lon="-3.1217">
        <ele>164.699219</ele>
        <time>2020-07-24T12:25:14.000Z</time>
      </trkpt>
      <trkpt lat="48.21796" lon="-3.12157">
        <ele>166.597656</ele>
        <time>2020-07-24T12:25:18.000Z</time>
      </trkpt>
      <trkpt lat="48.21691" lon="-3.11989">
        <ele>158.5</ele>
        <time>2020-07-24T12:26:14.000Z</time>
      </trkpt>
      <trkpt lat="48.21663" lon="-3.1194">
        <ele>159.097656</ele>
        <time>2020-07-24T12:26:29.000Z</time>
      </trkpt>
      <trkpt lat="48.21638" lon="-3.11895">
        <ele>163</ele>
        <time>2020-07-24T12:26:41.000Z</time>
      </trkpt>
      <trkpt lat="48.21619" lon="-3.11853">
        <ele>162.898438</ele>
        <time>2020-07-24T12:26:51.000Z</time>
      </trkpt>
      <trkpt lat="48.21582" lon="-3.11762">
        <ele>164.898438</ele>
        <time>2020-07-24T12:27:12.000Z</time>
      </trkpt>
      <trkpt lat="48.21568" lon="-3.1172">
        <ele>165.898438</ele>
        <time>2020-07-24T12:27:22.000Z</time>
      </trkpt>
      <trkpt lat="48.21565" lon="-3.11706">
        <ele>166.199219</ele>
        <time>2020-07-24T12:27:25.000Z</time>
      </trkpt>
      <trkpt lat="48.2153" lon="-3.11567">
        <ele>167.199219</ele>
        <time>2020-07-24T12:27:55.000Z</time>
      </trkpt>
      <trkpt lat="48.21526" lon="-3.1154">
        <ele>167.5</ele>
        <time>2020-07-24T12:28:01.000Z</time>
      </trkpt>
      <trkpt lat="48.21519" lon="-3.11483">
        <ele>166.796875</ele>
        <time>2020-07-24T12:28:13.000Z</time>
      </trkpt>
      <trkpt lat="48.21517" lon="-3.11454">
        <ele>167.699219</ele>
        <time>2020-07-24T12:28:19.000Z</time>
      </trkpt>
      <trkpt lat="48.21513" lon="-3.11404">
        <ele>168.898438</ele>
        <time>2020-07-24T12:28:30.000Z</time>
      </trkpt>
      <trkpt lat="48.21512" lon="-3.11388">
        <ele>169.097656</ele>
        <time>2020-07-24T12:28:33.000Z</time>
      </trkpt>
      <trkpt lat="48.21512" lon="-3.11373">
        <ele>169.5</ele>
        <time>2020-07-24T12:28:36.000Z</time>
      </trkpt>
      <trkpt lat="48.2151" lon="-3.11329">
        <ele>169.597656</ele>
        <time>2020-07-24T12:28:45.000Z</time>
      </trkpt>
      <trkpt lat="48.21505" lon="-3.11268">
        <ele>169.796875</ele>
        <time>2020-07-24T12:28:57.000Z</time>
      </trkpt>
      <trkpt lat="48.21503" lon="-3.11252">
        <ele>170.097656</ele>
        <time>2020-07-24T12:29:00.000Z</time>
      </trkpt>
      <trkpt lat="48.21501" lon="-3.11238">
        <ele>170.296875</ele>
        <time>2020-07-24T12:29:03.000Z</time>
      </trkpt>
      <trkpt lat="48.21492" lon="-3.11195">
        <ele>170.5</ele>
        <time>2020-07-24T12:29:12.000Z</time>
      </trkpt>
      <trkpt lat="48.21489" lon="-3.11181">
        <ele>170.597656</ele>
        <time>2020-07-24T12:29:15.000Z</time>
      </trkpt>
      <trkpt lat="48.21484" lon="-3.11168">
        <ele>170.699219</ele>
        <time>2020-07-24T12:29:18.000Z</time>
      </trkpt>
      <trkpt lat="48.21474" lon="-3.11143">
        <ele>170.898438</ele>
        <time>2020-07-24T12:29:24.000Z</time>
      </trkpt>
      <trkpt lat="48.21468" lon="-3.11131">
        <ele>171.398438</ele>
        <time>2020-07-24T12:29:27.000Z</time>
      </trkpt>
      <trkpt lat="48.21376" lon="-3.10961">
        <ele>174.199219</ele>
        <time>2020-07-24T12:30:10.000Z</time>
      </trkpt>
      <trkpt lat="48.21369" lon="-3.10949">
        <ele>174.398438</ele>
        <time>2020-07-24T12:30:13.000Z</time>
      </trkpt>
      <trkpt lat="48.21361" lon="-3.10939">
        <ele>174.796875</ele>
        <time>2020-07-24T12:30:19.000Z</time>
      </trkpt>
      <trkpt lat="48.21353" lon="-3.10931">
        <ele>175.5</ele>
        <time>2020-07-24T12:30:23.000Z</time>
      </trkpt>
      <trkpt lat="48.21339" lon="-3.1091">
        <ele>177.5</ele>
        <time>2020-07-24T12:30:32.000Z</time>
      </trkpt>
      <trkpt lat="48.21331" lon="-3.10899">
        <ele>177.699219</ele>
        <time>2020-07-24T12:30:37.000Z</time>
      </trkpt>
      <trkpt lat="48.21329" lon="-3.10885">
        <ele>178.398438</ele>
        <time>2020-07-24T12:30:42.000Z</time>
      </trkpt>
      <trkpt lat="48.21332" lon="-3.10869">
        <ele>179.199219</ele>
        <time>2020-07-24T12:30:46.000Z</time>
      </trkpt>
      <trkpt lat="48.21334" lon="-3.10852">
        <ele>180</ele>
        <time>2020-07-24T12:30:50.000Z</time>
      </trkpt>
      <trkpt lat="48.21335" lon="-3.10835">
        <ele>180.699219</ele>
        <time>2020-07-24T12:30:54.000Z</time>
      </trkpt>
      <trkpt lat="48.21336" lon="-3.10818">
        <ele>181.296875</ele>
        <time>2020-07-24T12:30:58.000Z</time>
      </trkpt>
      <trkpt lat="48.21342" lon="-3.10752">
        <ele>184.5</ele>
        <time>2020-07-24T12:31:13.000Z</time>
      </trkpt>
      <trkpt lat="48.21345" lon="-3.10734">
        <ele>185.398438</ele>
        <time>2020-07-24T12:31:17.000Z</time>
      </trkpt>
      <trkpt lat="48.21348" lon="-3.10717">
        <ele>186</ele>
        <time>2020-07-24T12:31:21.000Z</time>
      </trkpt>
      <trkpt lat="48.21352" lon="-3.10705">
        <ele>186.398438</ele>
        <time>2020-07-24T12:31:24.000Z</time>
      </trkpt>
      <trkpt lat="48.21358" lon="-3.10693">
        <ele>187</ele>
        <time>2020-07-24T12:31:27.000Z</time>
      </trkpt>
      <trkpt lat="48.21372" lon="-3.10669">
        <ele>188.699219</ele>
        <time>2020-07-24T12:31:34.000Z</time>
      </trkpt>
      <trkpt lat="48.21377" lon="-3.10656">
        <ele>188.097656</ele>
        <time>2020-07-24T12:31:38.000Z</time>
      </trkpt>
      <trkpt lat="48.21383" lon="-3.10641">
        <ele>187.398438</ele>
        <time>2020-07-24T12:31:42.000Z</time>
      </trkpt>
      <trkpt lat="48.2139" lon="-3.10627">
        <ele>187.097656</ele>
        <time>2020-07-24T12:31:45.000Z</time>
      </trkpt>
      <trkpt lat="48.21514" lon="-3.10414">
        <ele>186.296875</ele>
        <time>2020-07-24T12:32:29.000Z</time>
      </trkpt>
      <trkpt lat="48.21545" lon="-3.10355">
        <ele>184</ele>
        <time>2020-07-24T12:32:44.000Z</time>
      </trkpt>
      <trkpt lat="48.21568" lon="-3.10302">
        <ele>186</ele>
        <time>2020-07-24T12:32:59.000Z</time>
      </trkpt>
      <trkpt lat="48.21579" lon="-3.10272">
        <ele>187.097656</ele>
        <time>2020-07-24T12:33:07.000Z</time>
      </trkpt>
      <trkpt lat="48.21592" lon="-3.1023">
        <ele>188.097656</ele>
        <time>2020-07-24T12:33:17.000Z</time>
      </trkpt>
      <trkpt lat="48.2177" lon="-3.0967">
        <ele>192.398438</ele>
        <time>2020-07-24T12:35:15.000Z</time>
      </trkpt>
      <trkpt lat="48.21781" lon="-3.09628">
        <ele>193.199219</ele>
        <time>2020-07-24T12:35:25.000Z</time>
      </trkpt>
      <trkpt lat="48.21788" lon="-3.09598">
        <ele>193.296875</ele>
        <time>2020-07-24T12:35:32.000Z</time>
      </trkpt>
      <trkpt lat="48.21796" lon="-3.09552">
        <ele>190.597656</ele>
        <time>2020-07-24T12:35:43.000Z</time>
      </trkpt>
      <trkpt lat="48.21797" lon="-3.09538">
        <ele>191.097656</ele>
        <time>2020-07-24T12:35:46.000Z</time>
      </trkpt>
      <trkpt lat="48.21805" lon="-3.09435">
        <ele>195.796875</ele>
        <time>2020-07-24T12:36:07.000Z</time>
      </trkpt>
      <trkpt lat="48.21805" lon="-3.0942">
        <ele>196.097656</ele>
        <time>2020-07-24T12:36:10.000Z</time>
      </trkpt>
      <trkpt lat="48.21805" lon="-3.09388">
        <ele>196.5</ele>
        <time>2020-07-24T12:36:16.000Z</time>
      </trkpt>
      <trkpt lat="48.21802" lon="-3.09331">
        <ele>197.699219</ele>
        <time>2020-07-24T12:36:28.000Z</time>
      </trkpt>
      <trkpt lat="48.218" lon="-3.09303">
        <ele>195.898438</ele>
        <time>2020-07-24T12:36:34.000Z</time>
      </trkpt>
      <trkpt lat="48.21792" lon="-3.09246">
        <ele>194.597656</ele>
        <time>2020-07-24T12:36:46.000Z</time>
      </trkpt>
      <trkpt lat="48.21787" lon="-3.09216">
        <ele>194.796875</ele>
        <time>2020-07-24T12:36:52.000Z</time>
      </trkpt>
      <trkpt lat="48.21747" lon="-3.08987">
        <ele>199.097656</ele>
        <time>2020-07-24T12:37:37.000Z</time>
      </trkpt>
      <trkpt lat="48.21741" lon="-3.08929">
        <ele>195.5</ele>
        <time>2020-07-24T12:37:49.000Z</time>
      </trkpt>
      <trkpt lat="48.2174" lon="-3.08914">
        <ele>195.699219</ele>
        <time>2020-07-24T12:37:52.000Z</time>
      </trkpt>
      <trkpt lat="48.21739" lon="-3.08882">
        <ele>195.296875</ele>
        <time>2020-07-24T12:37:58.000Z</time>
      </trkpt>
      <trkpt lat="48.21741" lon="-3.08819">
        <ele>196.296875</ele>
        <time>2020-07-24T12:38:10.000Z</time>
      </trkpt>
      <trkpt lat="48.21744" lon="-3.08785">
        <ele>197.796875</ele>
        <time>2020-07-24T12:38:16.000Z</time>
      </trkpt>
      <trkpt lat="48.21749" lon="-3.08753">
        <ele>199.296875</ele>
        <time>2020-07-24T12:38:22.000Z</time>
      </trkpt>
      <trkpt lat="48.21752" lon="-3.08737">
        <ele>200.398438</ele>
        <time>2020-07-24T12:38:25.000Z</time>
      </trkpt>
      <trkpt lat="48.21764" lon="-3.08689">
        <ele>199.199219</ele>
        <time>2020-07-24T12:38:34.000Z</time>
      </trkpt>
      <trkpt lat="48.2178" lon="-3.08631">
        <ele>199.5</ele>
        <time>2020-07-24T12:38:46.000Z</time>
      </trkpt>
      <trkpt lat="48.21881" lon="-3.08322">
        <ele>199.5</ele>
        <time>2020-07-24T12:39:56.000Z</time>
      </trkpt>
      <trkpt lat="48.21885" lon="-3.08308">
        <ele>201.398438</ele>
        <time>2020-07-24T12:40:00.000Z</time>
      </trkpt>
      <trkpt lat="48.21887" lon="-3.08293">
        <ele>201.796875</ele>
        <time>2020-07-24T12:40:06.000Z</time>
      </trkpt>
      <trkpt lat="48.21909" lon="-3.08186">
        <ele>198.398438</ele>
        <time>2020-07-24T12:40:29.000Z</time>
      </trkpt>
      <trkpt lat="48.21912" lon="-3.08139">
        <ele>198.097656</ele>
        <time>2020-07-24T12:40:38.000Z</time>
      </trkpt>
      <trkpt lat="48.21913" lon="-3.08123">
        <ele>198.296875</ele>
        <time>2020-07-24T12:40:41.000Z</time>
      </trkpt>
      <trkpt lat="48.21913" lon="-3.08072">
        <ele>200.296875</ele>
        <time>2020-07-24T12:40:50.000Z</time>
      </trkpt>
      <trkpt lat="48.2191" lon="-3.07992">
        <ele>202.597656</ele>
        <time>2020-07-24T12:41:05.000Z</time>
      </trkpt>
      <trkpt lat="48.21906" lon="-3.07959">
        <ele>201.5</ele>
        <time>2020-07-24T12:41:11.000Z</time>
      </trkpt>
      <trkpt lat="48.21898" lon="-3.07897">
        <ele>201.898438</ele>
        <time>2020-07-24T12:41:23.000Z</time>
      </trkpt>
      <trkpt lat="48.2188" lon="-3.07802">
        <ele>204.296875</ele>
        <time>2020-07-24T12:41:41.000Z</time>
      </trkpt>
      <trkpt lat="48.21865" lon="-3.0772">
        <ele>202.898438</ele>
        <time>2020-07-24T12:41:56.000Z</time>
      </trkpt>
      <trkpt lat="48.21862" lon="-3.07707">
        <ele>202.699219</ele>
        <time>2020-07-24T12:41:59.000Z</time>
      </trkpt>
      <trkpt lat="48.21856" lon="-3.07675">
        <ele>202.898438</ele>
        <time>2020-07-24T12:42:06.000Z</time>
      </trkpt>
      <trkpt lat="48.21849" lon="-3.0763">
        <ele>203</ele>
        <time>2020-07-24T12:42:18.000Z</time>
      </trkpt>
      <trkpt lat="48.21847" lon="-3.07614">
        <ele>202.898438</ele>
        <time>2020-07-24T12:42:22.000Z</time>
      </trkpt>
      <trkpt lat="48.21841" lon="-3.07539">
        <ele>201.5</ele>
        <time>2020-07-24T12:42:44.000Z</time>
      </trkpt>
      <trkpt lat="48.21839" lon="-3.07479">
        <ele>202</ele>
        <time>2020-07-24T12:43:03.000Z</time>
      </trkpt>
      <trkpt lat="48.2184" lon="-3.07463">
        <ele>203.097656</ele>
        <time>2020-07-24T12:43:07.000Z</time>
      </trkpt>
      <trkpt lat="48.21852" lon="-3.07214">
        <ele>201.296875</ele>
        <time>2020-07-24T12:43:56.000Z</time>
      </trkpt>
      <trkpt lat="48.21852" lon="-3.07199">
        <ele>199.796875</ele>
        <time>2020-07-24T12:43:59.000Z</time>
      </trkpt>
      <trkpt lat="48.21849" lon="-3.07122">
        <ele>201</ele>
        <time>2020-07-24T12:44:14.000Z</time>
      </trkpt>
      <trkpt lat="48.21845" lon="-3.07088">
        <ele>200.199219</ele>
        <time>2020-07-24T12:44:20.000Z</time>
      </trkpt>
      <trkpt lat="48.21837" lon="-3.07039">
        <ele>200</ele>
        <time>2020-07-24T12:44:29.000Z</time>
      </trkpt>
      <trkpt lat="48.21823" lon="-3.06973">
        <ele>202.597656</ele>
        <time>2020-07-24T12:44:41.000Z</time>
      </trkpt>
      <trkpt lat="48.21815" lon="-3.06943">
        <ele>203.597656</ele>
        <time>2020-07-24T12:44:47.000Z</time>
      </trkpt>
      <trkpt lat="48.21805" lon="-3.06917">
        <ele>204.398438</ele>
        <time>2020-07-24T12:44:53.000Z</time>
      </trkpt>
      <trkpt lat="48.21796" lon="-3.06892">
        <ele>204.898438</ele>
        <time>2020-07-24T12:44:59.000Z</time>
      </trkpt>
      <trkpt lat="48.21784" lon="-3.06868">
        <ele>205.597656</ele>
        <time>2020-07-24T12:45:05.000Z</time>
      </trkpt>
      <trkpt lat="48.21771" lon="-3.06842">
        <ele>206.199219</ele>
        <time>2020-07-24T12:45:11.000Z</time>
      </trkpt>
      <trkpt lat="48.21757" lon="-3.06818">
        <ele>207</ele>
        <time>2020-07-24T12:45:17.000Z</time>
      </trkpt>
      <trkpt lat="48.21721" lon="-3.06765">
        <ele>207.898438</ele>
        <time>2020-07-24T12:45:32.000Z</time>
      </trkpt>
      <trkpt lat="48.21582" lon="-3.06576">
        <ele>212.699219</ele>
        <time>2020-07-24T12:46:31.000Z</time>
      </trkpt>
      <trkpt lat="48.21514" lon="-3.06229">
        <ele>213.148438</ele>
        <time>2020-07-24T12:48:42.000Z</time>
      </trkpt>
      <trkpt lat="48.21514" lon="-3.0623">
        <ele>213.863281</ele>
        <time>2020-07-24T12:48:50.000Z</time>
      </trkpt>
      <trkpt lat="48.21508" lon="-3.06229">
        <ele>207.054688</ele>
        <time>2020-07-24T12:50:06.000Z</time>
      </trkpt>
      <trkpt lat="48.21519" lon="-3.0623">
        <ele>214.398438</ele>
        <time>2020-07-24T12:51:21.000Z</time>
      </trkpt>
      <trkpt lat="48.21521" lon="-3.06216">
        <ele>213.5</ele>
        <time>2020-07-24T12:51:29.000Z</time>
      </trkpt>
      <trkpt lat="48.21523" lon="-3.062">
        <ele>213.398438</ele>
        <time>2020-07-24T12:51:33.000Z</time>
      </trkpt>
      <trkpt lat="48.21533" lon="-3.06161">
        <ele>213.398438</ele>
        <time>2020-07-24T12:51:42.000Z</time>
      </trkpt>
      <trkpt lat="48.21536" lon="-3.06148">
        <ele>213.199219</ele>
        <time>2020-07-24T12:51:45.000Z</time>
      </trkpt>
      <trkpt lat="48.21541" lon="-3.06133">
        <ele>212.296875</ele>
        <time>2020-07-24T12:51:48.000Z</time>
      </trkpt>
      <trkpt lat="48.2155" lon="-3.06105">
        <ele>209.199219</ele>
        <time>2020-07-24T12:51:54.000Z</time>
      </trkpt>
      <trkpt lat="48.21564" lon="-3.06071">
        <ele>207.796875</ele>
        <time>2020-07-24T12:52:00.000Z</time>
      </trkpt>
      <trkpt lat="48.21606" lon="-3.0598">
        <ele>203.699219</ele>
        <time>2020-07-24T12:52:16.000Z</time>
      </trkpt>
      <trkpt lat="48.21648" lon="-3.05892">
        <ele>206</ele>
        <time>2020-07-24T12:52:30.000Z</time>
      </trkpt>
      <trkpt lat="48.21656" lon="-3.05866">
        <ele>205.199219</ele>
        <time>2020-07-24T12:52:34.000Z</time>
      </trkpt>
      <trkpt lat="48.21675" lon="-3.05809">
        <ele>200.398438</ele>
        <time>2020-07-24T12:52:43.000Z</time>
      </trkpt>
      <trkpt lat="48.21682" lon="-3.0578">
        <ele>200.5</ele>
        <time>2020-07-24T12:52:47.000Z</time>
      </trkpt>
      <trkpt lat="48.2169" lon="-3.05747">
        <ele>198.796875</ele>
        <time>2020-07-24T12:52:52.000Z</time>
      </trkpt>
      <trkpt lat="48.21693" lon="-3.05734">
        <ele>196.296875</ele>
        <time>2020-07-24T12:52:54.000Z</time>
      </trkpt>
      <trkpt lat="48.21695" lon="-3.05714">
        <ele>194.898438</ele>
        <time>2020-07-24T12:52:57.000Z</time>
      </trkpt>
      <trkpt lat="48.21699" lon="-3.05701">
        <ele>194.199219</ele>
        <time>2020-07-24T12:52:59.000Z</time>
      </trkpt>
      <trkpt lat="48.21703" lon="-3.05672">
        <ele>193.5</ele>
        <time>2020-07-24T12:53:03.000Z</time>
      </trkpt>
      <trkpt lat="48.21704" lon="-3.05658">
        <ele>192.597656</ele>
        <time>2020-07-24T12:53:05.000Z</time>
      </trkpt>
      <trkpt lat="48.21705" lon="-3.05643">
        <ele>191.898438</ele>
        <time>2020-07-24T12:53:07.000Z</time>
      </trkpt>
      <trkpt lat="48.21706" lon="-3.05628">
        <ele>191</ele>
        <time>2020-07-24T12:53:09.000Z</time>
      </trkpt>
      <trkpt lat="48.21709" lon="-3.05614">
        <ele>189.898438</ele>
        <time>2020-07-24T12:53:11.000Z</time>
      </trkpt>
      <trkpt lat="48.21727" lon="-3.05443">
        <ele>182.199219</ele>
        <time>2020-07-24T12:53:35.000Z</time>
      </trkpt>
      <trkpt lat="48.21727" lon="-3.05429">
        <ele>181.5</ele>
        <time>2020-07-24T12:53:37.000Z</time>
      </trkpt>
      <trkpt lat="48.21727" lon="-3.05415">
        <ele>180.5</ele>
        <time>2020-07-24T12:53:39.000Z</time>
      </trkpt>
      <trkpt lat="48.21725" lon="-3.05396">
        <ele>179.398438</ele>
        <time>2020-07-24T12:53:42.000Z</time>
      </trkpt>
      <trkpt lat="48.21723" lon="-3.05379">
        <ele>179.5</ele>
        <time>2020-07-24T12:53:45.000Z</time>
      </trkpt>
      <trkpt lat="48.2172" lon="-3.05361">
        <ele>180</ele>
        <time>2020-07-24T12:53:48.000Z</time>
      </trkpt>
      <trkpt lat="48.21715" lon="-3.05344">
        <ele>180</ele>
        <time>2020-07-24T12:53:51.000Z</time>
      </trkpt>
      <trkpt lat="48.2171" lon="-3.05326">
        <ele>180.296875</ele>
        <time>2020-07-24T12:53:54.000Z</time>
      </trkpt>
      <trkpt lat="48.21704" lon="-3.05309">
        <ele>182</ele>
        <time>2020-07-24T12:53:57.000Z</time>
      </trkpt>
      <trkpt lat="48.21699" lon="-3.05291">
        <ele>184.5</ele>
        <time>2020-07-24T12:54:00.000Z</time>
      </trkpt>
      <trkpt lat="48.21583" lon="-3.04879">
        <ele>191.5</ele>
        <time>2020-07-24T12:55:02.000Z</time>
      </trkpt>
      <trkpt lat="48.21485" lon="-3.04549">
        <ele>181.796875</ele>
        <time>2020-07-24T12:55:52.000Z</time>
      </trkpt>
      <trkpt lat="48.21483" lon="-3.04533">
        <ele>181.597656</ele>
        <time>2020-07-24T12:55:55.000Z</time>
      </trkpt>
      <trkpt lat="48.21481" lon="-3.04517">
        <ele>181.796875</ele>
        <time>2020-07-24T12:55:59.000Z</time>
      </trkpt>
      <trkpt lat="48.21478" lon="-3.04501">
        <ele>181.898438</ele>
        <time>2020-07-24T12:56:03.000Z</time>
      </trkpt>
      <trkpt lat="48.21477" lon="-3.04485">
        <ele>181.296875</ele>
        <time>2020-07-24T12:56:06.000Z</time>
      </trkpt>
      <trkpt lat="48.21475" lon="-3.04467">
        <ele>180.199219</ele>
        <time>2020-07-24T12:56:09.000Z</time>
      </trkpt>
      <trkpt lat="48.21476" lon="-3.04448">
        <ele>180.097656</ele>
        <time>2020-07-24T12:56:12.000Z</time>
      </trkpt>
      <trkpt lat="48.21476" lon="-3.0443">
        <ele>180.199219</ele>
        <time>2020-07-24T12:56:15.000Z</time>
      </trkpt>
      <trkpt lat="48.2148" lon="-3.04391">
        <ele>179.597656</ele>
        <time>2020-07-24T12:56:21.000Z</time>
      </trkpt>
      <trkpt lat="48.21483" lon="-3.04373">
        <ele>178.898438</ele>
        <time>2020-07-24T12:56:24.000Z</time>
      </trkpt>
      <trkpt lat="48.21491" lon="-3.04337">
        <ele>178.898438</ele>
        <time>2020-07-24T12:56:30.000Z</time>
      </trkpt>
      <trkpt lat="48.21495" lon="-3.04319">
        <ele>178.898438</ele>
        <time>2020-07-24T12:56:33.000Z</time>
      </trkpt>
      <trkpt lat="48.215" lon="-3.04303">
        <ele>178.796875</ele>
        <time>2020-07-24T12:56:36.000Z</time>
      </trkpt>
      <trkpt lat="48.21541" lon="-3.0417">
        <ele>176.898438</ele>
        <time>2020-07-24T12:57:00.000Z</time>
      </trkpt>
      <trkpt lat="48.21548" lon="-3.04143">
        <ele>175.398438</ele>
        <time>2020-07-24T12:57:06.000Z</time>
      </trkpt>
      <trkpt lat="48.21552" lon="-3.04127">
        <ele>175.296875</ele>
        <time>2020-07-24T12:57:09.000Z</time>
      </trkpt>
      <trkpt lat="48.21559" lon="-3.0409">
        <ele>175.898438</ele>
        <time>2020-07-24T12:57:15.000Z</time>
      </trkpt>
      <trkpt lat="48.21561" lon="-3.04072">
        <ele>176.296875</ele>
        <time>2020-07-24T12:57:18.000Z</time>
      </trkpt>
      <trkpt lat="48.21562" lon="-3.04053">
        <ele>176.296875</ele>
        <time>2020-07-24T12:57:21.000Z</time>
      </trkpt>
      <trkpt lat="48.21563" lon="-3.04025">
        <ele>176.796875</ele>
        <time>2020-07-24T12:57:25.000Z</time>
      </trkpt>
      <trkpt lat="48.21563" lon="-3.04006">
        <ele>177.199219</ele>
        <time>2020-07-24T12:57:28.000Z</time>
      </trkpt>
      <trkpt lat="48.21561" lon="-3.03989">
        <ele>177.796875</ele>
        <time>2020-07-24T12:57:31.000Z</time>
      </trkpt>
      <trkpt lat="48.21558" lon="-3.03974">
        <ele>178.296875</ele>
        <time>2020-07-24T12:57:36.000Z</time>
      </trkpt>
      <trkpt lat="48.21551" lon="-3.03966">
        <ele>176.796875</ele>
        <time>2020-07-24T12:57:43.000Z</time>
      </trkpt>
      <trkpt lat="48.21543" lon="-3.03951">
        <ele>176</ele>
        <time>2020-07-24T12:57:47.000Z</time>
      </trkpt>
      <trkpt lat="48.2154" lon="-3.03936">
        <ele>175.5</ele>
        <time>2020-07-24T12:57:49.000Z</time>
      </trkpt>
      <trkpt lat="48.21519" lon="-3.03811">
        <ele>177.699219</ele>
        <time>2020-07-24T12:58:10.000Z</time>
      </trkpt>
      <trkpt lat="48.21515" lon="-3.03797">
        <ele>178</ele>
        <time>2020-07-24T12:58:14.000Z</time>
      </trkpt>
      <trkpt lat="48.2151" lon="-3.03786">
        <ele>177.597656</ele>
        <time>2020-07-24T12:58:18.000Z</time>
      </trkpt>
      <trkpt lat="48.21504" lon="-3.03773">
        <ele>177.398438</ele>
        <time>2020-07-24T12:58:22.000Z</time>
      </trkpt>
      <trkpt lat="48.215" lon="-3.03756">
        <ele>177.398438</ele>
        <time>2020-07-24T12:58:26.000Z</time>
      </trkpt>
      <trkpt lat="48.21478" lon="-3.03643">
        <ele>176.796875</ele>
        <time>2020-07-24T12:58:47.000Z</time>
      </trkpt>
      <trkpt lat="48.21479" lon="-3.03627">
        <ele>177.097656</ele>
        <time>2020-07-24T12:58:50.000Z</time>
      </trkpt>
      <trkpt lat="48.21485" lon="-3.03616">
        <ele>177.398438</ele>
        <time>2020-07-24T12:58:53.000Z</time>
      </trkpt>
      <trkpt lat="48.2149" lon="-3.03602">
        <ele>178</ele>
        <time>2020-07-24T12:58:57.000Z</time>
      </trkpt>
      <trkpt lat="48.2149" lon="-3.03588">
        <ele>178</ele>
        <time>2020-07-24T12:59:01.000Z</time>
      </trkpt>
      <trkpt lat="48.21493" lon="-3.03376">
        <ele>175.296875</ele>
        <time>2020-07-24T12:59:52.000Z</time>
      </trkpt>
      <trkpt lat="48.21494" lon="-3.03357">
        <ele>175.199219</ele>
        <time>2020-07-24T12:59:55.000Z</time>
      </trkpt>
      <trkpt lat="48.21496" lon="-3.03339">
        <ele>174.796875</ele>
        <time>2020-07-24T12:59:58.000Z</time>
      </trkpt>
      <trkpt lat="48.21504" lon="-3.03284">
        <ele>173.199219</ele>
        <time>2020-07-24T13:00:07.000Z</time>
      </trkpt>
      <trkpt lat="48.21512" lon="-3.03247">
        <ele>172.699219</ele>
        <time>2020-07-24T13:00:13.000Z</time>
      </trkpt>
      <trkpt lat="48.2152" lon="-3.03209">
        <ele>171.398438</ele>
        <time>2020-07-24T13:00:19.000Z</time>
      </trkpt>
      <trkpt lat="48.21534" lon="-3.03155">
        <ele>170.398438</ele>
        <time>2020-07-24T13:00:28.000Z</time>
      </trkpt>
      <trkpt lat="48.21551" lon="-3.03096">
        <ele>171.199219</ele>
        <time>2020-07-24T13:00:42.000Z</time>
      </trkpt>
      <trkpt lat="48.21557" lon="-3.03083">
        <ele>170.296875</ele>
        <time>2020-07-24T13:00:45.000Z</time>
      </trkpt>
      <trkpt lat="48.21562" lon="-3.03071">
        <ele>169</ele>
        <time>2020-07-24T13:00:48.000Z</time>
      </trkpt>
      <trkpt lat="48.21566" lon="-3.03058">
        <ele>168.296875</ele>
        <time>2020-07-24T13:00:51.000Z</time>
      </trkpt>
      <trkpt lat="48.21574" lon="-3.03033">
        <ele>169</ele>
        <time>2020-07-24T13:00:57.000Z</time>
      </trkpt>
      <trkpt lat="48.21657" lon="-3.02809">
        <ele>165.699219</ele>
        <time>2020-07-24T13:01:35.000Z</time>
      </trkpt>
      <trkpt lat="48.21662" lon="-3.02797">
        <ele>164.699219</ele>
        <time>2020-07-24T13:01:37.000Z</time>
      </trkpt>
      <trkpt lat="48.21707" lon="-3.02678">
        <ele>163.199219</ele>
        <time>2020-07-24T13:01:57.000Z</time>
      </trkpt>
      <trkpt lat="48.21713" lon="-3.0266">
        <ele>163.097656</ele>
        <time>2020-07-24T13:02:00.000Z</time>
      </trkpt>
      <trkpt lat="48.21718" lon="-3.02643">
        <ele>163.097656</ele>
        <time>2020-07-24T13:02:03.000Z</time>
      </trkpt>
      <trkpt lat="48.21722" lon="-3.02624">
        <ele>163</ele>
        <time>2020-07-24T13:02:06.000Z</time>
      </trkpt>
      <trkpt lat="48.2173" lon="-3.02581">
        <ele>162.398438</ele>
        <time>2020-07-24T13:02:12.000Z</time>
      </trkpt>
      <trkpt lat="48.21732" lon="-3.02565">
        <ele>162.097656</ele>
        <time>2020-07-24T13:02:14.000Z</time>
      </trkpt>
      <trkpt lat="48.21732" lon="-3.02548">
        <ele>161.296875</ele>
        <time>2020-07-24T13:02:16.000Z</time>
      </trkpt>
      <trkpt lat="48.21732" lon="-3.02531">
        <ele>160.796875</ele>
        <time>2020-07-24T13:02:18.000Z</time>
      </trkpt>
      <trkpt lat="48.21731" lon="-3.02514">
        <ele>160.597656</ele>
        <time>2020-07-24T13:02:20.000Z</time>
      </trkpt>
      <trkpt lat="48.2173" lon="-3.02497">
        <ele>160.5</ele>
        <time>2020-07-24T13:02:22.000Z</time>
      </trkpt>
      <trkpt lat="48.21728" lon="-3.02481">
        <ele>160.597656</ele>
        <time>2020-07-24T13:02:24.000Z</time>
      </trkpt>
      <trkpt lat="48.21719" lon="-3.02437">
        <ele>159.199219</ele>
        <time>2020-07-24T13:02:30.000Z</time>
      </trkpt>
      <trkpt lat="48.21716" lon="-3.02425">
        <ele>157.097656</ele>
        <time>2020-07-24T13:02:32.000Z</time>
      </trkpt>
      <trkpt lat="48.2171" lon="-3.02408">
        <ele>153.898438</ele>
        <time>2020-07-24T13:02:35.000Z</time>
      </trkpt>
      <trkpt lat="48.21702" lon="-3.02392">
        <ele>152.398438</ele>
        <time>2020-07-24T13:02:38.000Z</time>
      </trkpt>
      <trkpt lat="48.21696" lon="-3.02381">
        <ele>151.5</ele>
        <time>2020-07-24T13:02:40.000Z</time>
      </trkpt>
      <trkpt lat="48.21681" lon="-3.02357">
        <ele>151</ele>
        <time>2020-07-24T13:02:44.000Z</time>
      </trkpt>
      <trkpt lat="48.21578" lon="-3.02194">
        <ele>146.699219</ele>
        <time>2020-07-24T13:03:10.000Z</time>
      </trkpt>
      <trkpt lat="48.21571" lon="-3.02178">
        <ele>145.296875</ele>
        <time>2020-07-24T13:03:13.000Z</time>
      </trkpt>
      <trkpt lat="48.21565" lon="-3.02162">
        <ele>144</ele>
        <time>2020-07-24T13:03:16.000Z</time>
      </trkpt>
      <trkpt lat="48.21559" lon="-3.02147">
        <ele>144.398438</ele>
        <time>2020-07-24T13:03:19.000Z</time>
      </trkpt>
      <trkpt lat="48.21551" lon="-3.02121">
        <ele>145.898438</ele>
        <time>2020-07-24T13:03:23.000Z</time>
      </trkpt>
      <trkpt lat="48.21541" lon="-3.02079">
        <ele>147.5</ele>
        <time>2020-07-24T13:03:29.000Z</time>
      </trkpt>
      <trkpt lat="48.21538" lon="-3.02063">
        <ele>147.898438</ele>
        <time>2020-07-24T13:03:31.000Z</time>
      </trkpt>
      <trkpt lat="48.21481" lon="-3.01692">
        <ele>151.5</ele>
        <time>2020-07-24T13:06:47.000Z</time>
      </trkpt>
      <trkpt lat="48.2148" lon="-3.01672">
        <ele>151.5</ele>
        <time>2020-07-24T13:06:50.000Z</time>
      </trkpt>
      <trkpt lat="48.21479" lon="-3.01645">
        <ele>151.398438</ele>
        <time>2020-07-24T13:06:54.000Z</time>
      </trkpt>
      <trkpt lat="48.2148" lon="-3.01617">
        <ele>151.5</ele>
        <time>2020-07-24T13:06:58.000Z</time>
      </trkpt>
      <trkpt lat="48.21481" lon="-3.01598">
        <ele>151.597656</ele>
        <time>2020-07-24T13:07:01.000Z</time>
      </trkpt>
      <trkpt lat="48.21485" lon="-3.01562">
        <ele>152.199219</ele>
        <time>2020-07-24T13:07:07.000Z</time>
      </trkpt>
      <trkpt lat="48.21488" lon="-3.01549">
        <ele>151.398438</ele>
        <time>2020-07-24T13:07:11.000Z</time>
      </trkpt>
      <trkpt lat="48.2149" lon="-3.01534">
        <ele>150</ele>
        <time>2020-07-24T13:07:18.000Z</time>
      </trkpt>
      <trkpt lat="48.21495" lon="-3.01518">
        <ele>148</ele>
        <time>2020-07-24T13:07:22.000Z</time>
      </trkpt>
      <trkpt lat="48.21507" lon="-3.01476">
        <ele>145.199219</ele>
        <time>2020-07-24T13:07:32.000Z</time>
      </trkpt>
      <trkpt lat="48.21563" lon="-3.01301">
        <ele>137.5</ele>
        <time>2020-07-24T13:08:03.000Z</time>
      </trkpt>
      <trkpt lat="48.21567" lon="-3.01282">
        <ele>137.398438</ele>
        <time>2020-07-24T13:08:06.000Z</time>
      </trkpt>
      <trkpt lat="48.2157" lon="-3.01269">
        <ele>137.296875</ele>
        <time>2020-07-24T13:08:08.000Z</time>
      </trkpt>
      <trkpt lat="48.21573" lon="-3.01241">
        <ele>137.597656</ele>
        <time>2020-07-24T13:08:12.000Z</time>
      </trkpt>
      <trkpt lat="48.21575" lon="-3.01227">
        <ele>138</ele>
        <time>2020-07-24T13:08:14.000Z</time>
      </trkpt>
      <trkpt lat="48.21575" lon="-3.01213">
        <ele>138.5</ele>
        <time>2020-07-24T13:08:16.000Z</time>
      </trkpt>
      <trkpt lat="48.21574" lon="-3.0118">
        <ele>138.296875</ele>
        <time>2020-07-24T13:08:21.000Z</time>
      </trkpt>
      <trkpt lat="48.21572" lon="-3.01166">
        <ele>138.699219</ele>
        <time>2020-07-24T13:08:23.000Z</time>
      </trkpt>
      <trkpt lat="48.21571" lon="-3.01152">
        <ele>138.796875</ele>
        <time>2020-07-24T13:08:25.000Z</time>
      </trkpt>
      <trkpt lat="48.21566" lon="-3.01126">
        <ele>139</ele>
        <time>2020-07-24T13:08:29.000Z</time>
      </trkpt>
      <trkpt lat="48.21562" lon="-3.01113">
        <ele>139.5</ele>
        <time>2020-07-24T13:08:31.000Z</time>
      </trkpt>
      <trkpt lat="48.21555" lon="-3.01088">
        <ele>139.796875</ele>
        <time>2020-07-24T13:08:35.000Z</time>
      </trkpt>
      <trkpt lat="48.21548" lon="-3.01071">
        <ele>140</ele>
        <time>2020-07-24T13:08:38.000Z</time>
      </trkpt>
      <trkpt lat="48.21529" lon="-3.01024">
        <ele>141.597656</ele>
        <time>2020-07-24T13:08:47.000Z</time>
      </trkpt>
      <trkpt lat="48.21517" lon="-3.00998">
        <ele>141.597656</ele>
        <time>2020-07-24T13:08:53.000Z</time>
      </trkpt>
      <trkpt lat="48.21502" lon="-3.00973">
        <ele>143.097656</ele>
        <time>2020-07-24T13:08:59.000Z</time>
      </trkpt>
      <trkpt lat="48.21477" lon="-3.00933">
        <ele>145.097656</ele>
        <time>2020-07-24T13:09:08.000Z</time>
      </trkpt>
      <trkpt lat="48.21431" lon="-3.00869">
        <ele>146.5</ele>
        <time>2020-07-24T13:09:23.000Z</time>
      </trkpt>
      <trkpt lat="48.21423" lon="-3.00859">
        <ele>147.398438</ele>
        <time>2020-07-24T13:09:26.000Z</time>
      </trkpt>
      <trkpt lat="48.21414" lon="-3.0085">
        <ele>147.796875</ele>
        <time>2020-07-24T13:09:29.000Z</time>
      </trkpt>
      <trkpt lat="48.214" lon="-3.00832">
        <ele>148.398438</ele>
        <time>2020-07-24T13:09:35.000Z</time>
      </trkpt>
      <trkpt lat="48.20794" lon="-3.00129">
        <ele>153.796875</ele>
        <time>2020-07-24T13:13:07.000Z</time>
      </trkpt>
      <trkpt lat="48.20768" lon="-3.00104">
        <ele>153.699219</ele>
        <time>2020-07-24T13:13:16.000Z</time>
      </trkpt>
      <trkpt lat="48.20742" lon="-3.00082">
        <ele>156.097656</ele>
        <time>2020-07-24T13:13:25.000Z</time>
      </trkpt>
      <trkpt lat="48.20724" lon="-3.0007">
        <ele>156.699219</ele>
        <time>2020-07-24T13:13:31.000Z</time>
      </trkpt>
      <trkpt lat="48.20715" lon="-3.00064">
        <ele>157</ele>
        <time>2020-07-24T13:13:34.000Z</time>
      </trkpt>
      <trkpt lat="48.20687" lon="-3.00051">
        <ele>158.398438</ele>
        <time>2020-07-24T13:13:43.000Z</time>
      </trkpt>
      <trkpt lat="48.20655" lon="-3.0004">
        <ele>158.199219</ele>
        <time>2020-07-24T13:13:54.000Z</time>
      </trkpt>
      <trkpt lat="48.20627" lon="-3.00034">
        <ele>157.796875</ele>
        <time>2020-07-24T13:14:03.000Z</time>
      </trkpt>
      <trkpt lat="48.20589" lon="-3.00031">
        <ele>158.5</ele>
        <time>2020-07-24T13:14:15.000Z</time>
      </trkpt>
      <trkpt lat="48.2058" lon="-3.00032">
        <ele>158.398438</ele>
        <time>2020-07-24T13:14:18.000Z</time>
      </trkpt>
      <trkpt lat="48.2057" lon="-3.00033">
        <ele>158.199219</ele>
        <time>2020-07-24T13:14:21.000Z</time>
      </trkpt>
      <trkpt lat="48.20531" lon="-3.0004">
        <ele>159.199219</ele>
        <time>2020-07-24T13:14:33.000Z</time>
      </trkpt>
      <trkpt lat="48.205" lon="-3.00049">
        <ele>159.597656</ele>
        <time>2020-07-24T13:14:42.000Z</time>
      </trkpt>
      <trkpt lat="48.20417" lon="-3.00081">
        <ele>161.796875</ele>
        <time>2020-07-24T13:15:07.000Z</time>
      </trkpt>
      <trkpt lat="48.20361" lon="-3.00111">
        <ele>162.5</ele>
        <time>2020-07-24T13:15:26.000Z</time>
      </trkpt>
      <trkpt lat="48.20341" lon="-3.00119">
        <ele>163.296875</ele>
        <time>2020-07-24T13:15:32.000Z</time>
      </trkpt>
      <trkpt lat="48.20281" lon="-3.0014">
        <ele>164.796875</ele>
        <time>2020-07-24T13:15:50.000Z</time>
      </trkpt>
      <trkpt lat="48.20271" lon="-3.00142">
        <ele>164.796875</ele>
        <time>2020-07-24T13:15:53.000Z</time>
      </trkpt>
      <trkpt lat="48.2026" lon="-3.00143">
        <ele>165</ele>
        <time>2020-07-24T13:15:56.000Z</time>
      </trkpt>
      <trkpt lat="48.20226" lon="-3.00146">
        <ele>164.597656</ele>
        <time>2020-07-24T13:16:05.000Z</time>
      </trkpt>
      <trkpt lat="48.20193" lon="-3.00141">
        <ele>163.796875</ele>
        <time>2020-07-24T13:16:14.000Z</time>
      </trkpt>
      <trkpt lat="48.20172" lon="-3.00138">
        <ele>164.199219</ele>
        <time>2020-07-24T13:16:20.000Z</time>
      </trkpt>
      <trkpt lat="48.2015" lon="-3.00132">
        <ele>164.199219</ele>
        <time>2020-07-24T13:16:26.000Z</time>
      </trkpt>
      <trkpt lat="48.20127" lon="-3.00122">
        <ele>163.597656</ele>
        <time>2020-07-24T13:16:32.000Z</time>
      </trkpt>
      <trkpt lat="48.20114" lon="-3.00117">
        <ele>161.898438</ele>
        <time>2020-07-24T13:16:35.000Z</time>
      </trkpt>
      <trkpt lat="48.20093" lon="-3.00105">
        <ele>160.699219</ele>
        <time>2020-07-24T13:16:40.000Z</time>
      </trkpt>
      <trkpt lat="48.20081" lon="-3.00097">
        <ele>160.398438</ele>
        <time>2020-07-24T13:16:43.000Z</time>
      </trkpt>
      <trkpt lat="48.20056" lon="-3.00077">
        <ele>161.597656</ele>
        <time>2020-07-24T13:16:49.000Z</time>
      </trkpt>
      <trkpt lat="48.20048" lon="-3.00068">
        <ele>162</ele>
        <time>2020-07-24T13:16:51.000Z</time>
      </trkpt>
      <trkpt lat="48.20004" lon="-3.00025">
        <ele>160.296875</ele>
        <time>2020-07-24T13:17:01.000Z</time>
      </trkpt>
      <trkpt lat="48.1998" lon="-2.99995">
        <ele>157.296875</ele>
        <time>2020-07-24T13:17:07.000Z</time>
      </trkpt>
      <trkpt lat="48.19973" lon="-2.99984">
        <ele>156</ele>
        <time>2020-07-24T13:17:09.000Z</time>
      </trkpt>
      <trkpt lat="48.19959" lon="-2.99962">
        <ele>154</ele>
        <time>2020-07-24T13:17:13.000Z</time>
      </trkpt>
      <trkpt lat="48.19952" lon="-2.9995">
        <ele>152.597656</ele>
        <time>2020-07-24T13:17:15.000Z</time>
      </trkpt>
      <trkpt lat="48.19933" lon="-2.99911">
        <ele>150.398438</ele>
        <time>2020-07-24T13:17:21.000Z</time>
      </trkpt>
      <trkpt lat="48.19912" lon="-2.99857">
        <ele>149.796875</ele>
        <time>2020-07-24T13:17:29.000Z</time>
      </trkpt>
      <trkpt lat="48.19902" lon="-2.99828">
        <ele>149.898438</ele>
        <time>2020-07-24T13:17:33.000Z</time>
      </trkpt>
      <trkpt lat="48.19883" lon="-2.99763">
        <ele>150</ele>
        <time>2020-07-24T13:17:43.000Z</time>
      </trkpt>
      <trkpt lat="48.19803" lon="-2.99432">
        <ele>136.699219</ele>
        <time>2020-07-24T13:18:27.000Z</time>
      </trkpt>
      <trkpt lat="48.19801" lon="-2.99416">
        <ele>136.5</ele>
        <time>2020-07-24T13:18:29.000Z</time>
      </trkpt>
      <trkpt lat="48.198" lon="-2.994">
        <ele>136.296875</ele>
        <time>2020-07-24T13:18:31.000Z</time>
      </trkpt>
      <trkpt lat="48.19796" lon="-2.99327">
        <ele>137.199219</ele>
        <time>2020-07-24T13:18:41.000Z</time>
      </trkpt>
      <trkpt lat="48.19796" lon="-2.99265">
        <ele>139.796875</ele>
        <time>2020-07-24T13:18:50.000Z</time>
      </trkpt>
      <trkpt lat="48.19793" lon="-2.99249">
        <ele>140.296875</ele>
        <time>2020-07-24T13:18:53.000Z</time>
      </trkpt>
      <trkpt lat="48.19785" lon="-2.9924">
        <ele>141.597656</ele>
        <time>2020-07-24T13:18:57.000Z</time>
      </trkpt>
      <trkpt lat="48.19779" lon="-2.99226">
        <ele>141.699219</ele>
        <time>2020-07-24T13:19:02.000Z</time>
      </trkpt>
      <trkpt lat="48.19778" lon="-2.9921">
        <ele>142.199219</ele>
        <time>2020-07-24T13:19:05.000Z</time>
      </trkpt>
      <trkpt lat="48.19777" lon="-2.99193">
        <ele>142.597656</ele>
        <time>2020-07-24T13:19:08.000Z</time>
      </trkpt>
      <trkpt lat="48.19777" lon="-2.99174">
        <ele>142.898438</ele>
        <time>2020-07-24T13:19:11.000Z</time>
      </trkpt>
      <trkpt lat="48.19785" lon="-2.99019">
        <ele>143.597656</ele>
        <time>2020-07-24T13:19:36.000Z</time>
      </trkpt>
      <trkpt lat="48.19786" lon="-2.99006">
        <ele>143.898438</ele>
        <time>2020-07-24T13:19:41.000Z</time>
      </trkpt>
      <trkpt lat="48.19783" lon="-2.98989">
        <ele>144.097656</ele>
        <time>2020-07-24T13:19:46.000Z</time>
      </trkpt>
      <trkpt lat="48.19783" lon="-2.98975">
        <ele>144.597656</ele>
        <time>2020-07-24T13:19:49.000Z</time>
      </trkpt>
      <trkpt lat="48.19786" lon="-2.98961">
        <ele>145.097656</ele>
        <time>2020-07-24T13:19:52.000Z</time>
      </trkpt>
      <trkpt lat="48.19791" lon="-2.98949">
        <ele>145.5</ele>
        <time>2020-07-24T13:19:55.000Z</time>
      </trkpt>
      <trkpt lat="48.19798" lon="-2.98939">
        <ele>145.597656</ele>
        <time>2020-07-24T13:19:58.000Z</time>
      </trkpt>
      <trkpt lat="48.19806" lon="-2.98929">
        <ele>145.699219</ele>
        <time>2020-07-24T13:20:01.000Z</time>
      </trkpt>
      <trkpt lat="48.19816" lon="-2.98921">
        <ele>145.699219</ele>
        <time>2020-07-24T13:20:04.000Z</time>
      </trkpt>
      <trkpt lat="48.19826" lon="-2.98918">
        <ele>145.796875</ele>
        <time>2020-07-24T13:20:07.000Z</time>
      </trkpt>
      <trkpt lat="48.1983" lon="-2.98933">
        <ele>145.699219</ele>
        <time>2020-07-24T13:20:11.000Z</time>
      </trkpt>
      <trkpt lat="48.1983" lon="-2.9895">
        <ele>145.597656</ele>
        <time>2020-07-24T13:20:15.000Z</time>
      </trkpt>
      <trkpt lat="48.19829" lon="-2.98964">
        <ele>145.699219</ele>
        <time>2020-07-24T13:20:18.000Z</time>
      </trkpt>
      <trkpt lat="48.19823" lon="-2.98976">
        <ele>146</ele>
        <time>2020-07-24T13:20:22.000Z</time>
      </trkpt>
      <trkpt lat="48.19803" lon="-2.9894">
        <ele>166.960938</ele>
        <time>2020-07-24T13:21:39.000Z</time>
      </trkpt>
      <trkpt lat="48.19809" lon="-2.98939">
        <ele>150.171875</ele>
        <time>2020-07-24T13:30:55.000Z</time>
      </trkpt>
    </trkseg>
    </trkseg>
    </trkseg>
    </trkseg>
    </trkseg>
    </trkseg>
    </trkseg>
  </trk>
</gpx>